UA5836 / N417SW 7700 Squawk Report (9th of September, 2021)

Aircraft CRJ2 Reg No. N417SW Age N/A
Model Regional-Jet Jet engines 2 First flight 05-00
Registered 28-09-18 Rollout 05-00 Delivered 26-05-00
Construction No. 7400 Line No. N/A Series 200LR
ADSHEX A4EFC6 Airline name United Express Owner SkyWest Airlines
Airfield based Chicago O`Hare~IL~N First tracked N/A

Flight history for N417SW

Route Flight No Date Playback
George Bush Intercontinental (IAH) - Key Field (MEI) UA5188 2021-10-21 21:02:00
Hattiesburg Laurel Regional Airport (PIB) - George Bush Intercontinental (IAH) UA5107 2021-10-21 19:15:00
George Bush Intercontinental (IAH) - Hattiesburg Laurel Regional Airport (PIB) UA5036 2021-10-21 18:12:00
Mobile Rgnl (MOB) - George Bush Intercontinental (IAH) UA5708 2021-10-21 15:50:00
George Bush Intercontinental (IAH) - Mobile Rgnl (MOB) UA5333 2021-10-21 02:37:00
Tulsa Intl (TUL) - George Bush Intercontinental (IAH) UA5372 2021-10-20 21:59:00
Chicago Ohare Intl (ORD) - Tulsa Intl (TUL) UA5487 2021-10-20 20:39:00
Gerald R Ford Intl (GRR) - Chicago Ohare Intl (ORD) UA4730 2021-10-20 16:36:00
Chicago Ohare Intl (ORD) - Gerald R Ford Intl (GRR) UA5466 2021-10-20 15:57:00
Watertown Regional Airport (ATY) - Chicago Ohare Intl (ORD) UA5040 2021-10-20 12:16:00
Chicago Ohare Intl (ORD) - Watertown Regional Airport (ATY) UA5080 2021-10-20 11:00:00
Asheville Regional Airport (AVL) - Chicago Ohare Intl (ORD) UA4643 2021-10-19 23:27:00
Chicago Ohare Intl (ORD) - Asheville Regional Airport (AVL) UA5462 2021-10-19 20:28:00
Houghton County Memorial Airport (CMX) - Chicago Ohare Intl (ORD) UA5044 2021-10-19 18:58:00
Chicago Ohare Intl (ORD) - Houghton County Memorial Airport (CMX) UA5128 2021-10-19 14:40:00
Quad City Intl (MLI) - Chicago Ohare Intl (ORD) UA5437 2021-10-19 13:50:00
Denver Intl (DEN) - Quad City Intl (MLI) UA4703 2021-10-19 01:24:00
Midland Intl (MAF) - Denver Intl (DEN) UA5649 2021-10-18 21:49:00
Denver Intl (DEN) - Midland Intl (MAF) UA5237 2021-10-18 19:12:00
Rick Husband Amarillo Intl (AMA) - Denver Intl (DEN) UA4633 2021-10-17 21:54:00
Time Lat Lon Altitude Heading Speed Vertical Rate
2021-09-10 01:47:13 GMT 37.620281 -122.386726 0 292 0 0
2021-09-10 01:47:01 GMT 37.620258 -122.386681 0 289 3 0
2021-09-10 01:46:52 GMT 37.620289 -122.386421 0 226 5 0
2021-09-10 01:46:51 GMT 37.620270 -122.386398 0 226 5 0
2021-09-10 01:46:50 GMT 37.620258 -122.386383 0 226 5 0
2021-09-10 01:46:48 GMT 37.620220 -122.386337 0 226 5 0
2021-09-10 01:46:47 GMT 37.620209 -122.386322 0 226 5 0
2021-09-10 01:46:46 GMT 37.620190 -122.386299 0 226 5 0
2021-09-10 01:46:44 GMT 37.620171 -122.386261 0 226 6 0
2021-09-10 01:46:43 GMT 37.620152 -122.386276 0 226 10 0
2021-09-10 01:46:42 GMT 37.620079 -122.386223 0 222 11 0
2021-09-10 01:46:40 GMT 37.620098 -122.386131 0 209 8 0
2021-09-10 01:46:39 GMT 37.620110 -122.386093 0 209 9 0
2021-09-10 01:46:38 GMT 37.620071 -122.386002 0 207 10 0
2021-09-10 01:46:36 GMT 37.620140 -122.385941 0 205 11 0
2021-09-10 01:46:35 GMT 37.620190 -122.385910 0 206 10 0
2021-09-10 01:46:34 GMT 37.620281 -122.385849 0 205 10 0
2021-09-10 01:46:32 GMT 37.620319 -122.385818 0 205 10 0
2021-09-10 01:46:31 GMT 37.620369 -122.385803 0 204 10 0
2021-09-10 01:46:29 GMT 37.620449 -122.385742 0 202 10 0
2021-09-10 01:46:28 GMT 37.620491 -122.385712 0 201 10 0
2021-09-10 01:46:27 GMT 37.620529 -122.385696 0 202 10 0
2021-09-10 01:46:25 GMT 37.620628 -122.385643 0 194 9 0
2021-09-10 01:46:24 GMT 37.620670 -122.385590 0 186 8 0
2021-09-10 01:46:23 GMT 37.620708 -122.385582 0 182 9 0
2021-09-10 01:46:21 GMT 37.620781 -122.385559 0 177 9 0
2021-09-10 01:46:20 GMT 37.620819 -122.385551 0 177 8 0
2021-09-10 01:46:19 GMT 37.620838 -122.385559 0 176 14 0
2021-09-10 01:46:17 GMT 37.620991 -122.385483 0 131 12 0
2021-09-10 01:46:16 GMT 37.621029 -122.385521 0 129 13 0
2021-09-10 01:46:15 GMT 37.621090 -122.385559 0 122 13 0
2021-09-10 01:46:14 GMT 37.621159 -122.385674 0 121 13 0
2021-09-10 01:46:12 GMT 37.621201 -122.385742 0 122 12 0
2021-09-10 01:46:11 GMT 37.621220 -122.385811 0 124 12 0
2021-09-10 01:46:10 GMT 37.621250 -122.385872 0 126 12 0
2021-09-10 01:46:08 GMT 37.621300 -122.386017 0 135 12 0
2021-09-10 01:46:07 GMT 37.621342 -122.386070 0 140 11 0
2021-09-10 01:46:06 GMT 37.621399 -122.386192 0 156 13 0
2021-09-10 01:46:04 GMT 37.621471 -122.386200 0 155 12 0
2021-09-10 01:46:02 GMT 37.621552 -122.386276 0 179 12 0
2021-09-10 01:46:01 GMT 37.621601 -122.386337 0 198 12 0
2021-09-10 01:46:00 GMT 37.621670 -122.386330 0 206 11 0
2021-09-10 01:45:58 GMT 37.621761 -122.386276 0 208 12 0
2021-09-10 01:45:57 GMT 37.621819 -122.386261 0 220 11 0
2021-09-10 01:45:56 GMT 37.621880 -122.386230 0 241 10 0
2021-09-10 01:45:55 GMT 37.621899 -122.386200 0 254 12 0
2021-09-10 01:45:53 GMT 37.621990 -122.386047 0 283 10 0
2021-09-10 01:45:52 GMT 37.622002 -122.386002 0 286 10 0
2021-09-10 01:45:51 GMT 37.621990 -122.385933 0 290 10 0
2021-09-10 01:45:50 GMT 37.621979 -122.385811 0 296 9 0
2021-09-10 01:45:48 GMT 37.621960 -122.385757 0 296 9 0
2021-09-10 01:45:47 GMT 37.621948 -122.385712 0 301 9 0
2021-09-10 01:45:46 GMT 37.621910 -122.385612 0 302 9 0
2021-09-10 01:45:44 GMT 37.621868 -122.385559 0 300 7 0
2021-09-10 01:45:43 GMT 37.621861 -122.385490 0 301 6 0
2021-09-10 01:45:41 GMT 37.621819 -122.385399 0 300 2 0
2021-09-10 01:45:40 GMT 37.621792 -122.385384 0 300 0 0
2021-09-10 01:45:37 GMT 37.621761 -122.385330 0 300 0 0
2021-09-10 01:45:30 GMT 37.621761 -122.385323 0 300 0 0
2021-09-10 01:45:29 GMT 37.621738 -122.385330 0 300 0 0
2021-09-10 01:45:25 GMT 37.621738 -122.385330 0 300 0 0
2021-09-10 01:45:24 GMT 37.621731 -122.385330 0 300 1 0
2021-09-10 01:45:21 GMT 37.621738 -122.385330 0 300 1 0
2021-09-10 01:45:18 GMT 37.621750 -122.385330 0 300 0 0
2021-09-10 01:45:17 GMT 37.621738 -122.385330 0 300 1 0
2021-09-10 01:45:15 GMT 37.621750 -122.385330 0 300 1 0
2021-09-10 01:45:14 GMT 37.621769 -122.385323 0 300 0 0
2021-09-10 01:45:12 GMT 37.621769 -122.385307 0 300 0 0
2021-09-10 01:45:10 GMT 37.621769 -122.385307 0 300 1 0
2021-09-10 01:45:08 GMT 37.621761 -122.385323 0 300 0 0
2021-09-10 01:45:06 GMT 37.621769 -122.385330 0 300 0 0
2021-09-10 01:45:04 GMT 37.621769 -122.385323 0 300 0 0
2021-09-10 01:45:01 GMT 37.621761 -122.385323 0 300 0 0
2021-09-10 01:44:59 GMT 37.621761 -122.385330 0 300 0 0
2021-09-10 01:44:58 GMT 37.621761 -122.385323 0 300 0 0
2021-09-10 01:44:57 GMT 37.621750 -122.385330 0 300 1 0
2021-09-10 01:44:56 GMT 37.621731 -122.385338 0 300 4 0
2021-09-10 01:44:54 GMT 37.621792 -122.385338 0 295 4 0
2021-09-10 01:44:53 GMT 37.621761 -122.385330 0 290 4 0
2021-09-10 01:44:52 GMT 37.621750 -122.385292 0 290 5 0
2021-09-10 01:44:50 GMT 37.621738 -122.385269 0 293 5 0
2021-09-10 01:44:49 GMT 37.621750 -122.385246 0 296 8 0
2021-09-10 01:44:48 GMT 37.621731 -122.385231 0 290 8 0
2021-09-10 01:44:46 GMT 37.621719 -122.385147 0 298 10 0
2021-09-10 01:44:45 GMT 37.621700 -122.385101 0 298 11 0
2021-09-10 01:44:44 GMT 37.621651 -122.385010 0 297 13 0
2021-09-10 01:44:42 GMT 37.621632 -122.384949 0 296 13 0
2021-09-10 01:44:41 GMT 37.621590 -122.384880 0 295 13 0
2021-09-10 01:44:40 GMT 37.621571 -122.384819 0 295 13 0
2021-09-10 01:44:39 GMT 37.621540 -122.384750 0 294 13 0
2021-09-10 01:44:37 GMT 37.621490 -122.384621 0 295 13 0
2021-09-10 01:44:36 GMT 37.621471 -122.384552 0 301 13 0
2021-09-10 01:44:35 GMT 37.621460 -122.384468 0 312 13 0
2021-09-10 01:44:33 GMT 37.621361 -122.384354 0 291 11 0
2021-09-10 01:44:32 GMT 37.621330 -122.384277 0 291 10 0
2021-09-10 01:44:31 GMT 37.621311 -122.384209 0 291 10 0
2021-09-10 01:44:30 GMT 37.621269 -122.384087 0 288 8 0
2021-09-10 01:44:28 GMT 37.621250 -122.384041 0 288 8 0
2021-09-10 01:44:27 GMT 37.621239 -122.383987 0 287 7 0
2021-09-10 01:44:26 GMT 37.621220 -122.383942 0 287 6 0
2021-09-10 01:44:25 GMT 37.621220 -122.383911 0 278 6 0
2021-09-10 01:44:23 GMT 37.621181 -122.383827 0 273 6 0
2021-09-10 01:44:22 GMT 37.621189 -122.383797 0 278 5 0
2021-09-10 01:44:20 GMT 37.621120 -122.383713 0 244 10 0
2021-09-10 01:44:18 GMT 37.621132 -122.383667 0 242 10 0
2021-09-10 01:44:17 GMT 37.621151 -122.383621 0 242 10 0
2021-09-10 01:44:16 GMT 37.621170 -122.383560 0 238 10 0
2021-09-10 01:44:15 GMT 37.621201 -122.383453 0 231 10 0
2021-09-10 01:44:13 GMT 37.621231 -122.383392 0 229 10 0
2021-09-10 01:44:12 GMT 37.621250 -122.383347 0 226 11 0
2021-09-10 01:44:10 GMT 37.621311 -122.383247 0 224 12 0
2021-09-10 01:44:09 GMT 37.621361 -122.383186 0 222 10 0
2021-09-10 01:44:08 GMT 37.621368 -122.383163 0 219 14 0
2021-09-10 01:44:07 GMT 37.621410 -122.383110 0 217 14 0
2021-09-10 01:44:05 GMT 37.621510 -122.383041 0 224 18 0
2021-09-10 01:44:04 GMT 37.621571 -122.382980 0 226 19 0
2021-09-10 01:44:03 GMT 37.621632 -122.382912 0 227 19 0
2021-09-10 01:44:02 GMT 37.621700 -122.382843 0 230 19 0
2021-09-10 01:44:00 GMT 37.621811 -122.382690 0 233 21 0
2021-09-10 01:43:59 GMT 37.621880 -122.382591 0 235 20 0
2021-09-10 01:43:58 GMT 37.621929 -122.382492 0 235 20 0
2021-09-10 01:43:56 GMT 37.622051 -122.382309 0 246 21 0
2021-09-10 01:43:55 GMT 37.622082 -122.382210 0 245 23 0
2021-09-10 01:43:54 GMT 37.622150 -122.382088 0 254 22 0
2021-09-10 01:43:53 GMT 37.622238 -122.381851 0 265 23 0
2021-09-10 01:43:51 GMT 37.622261 -122.381721 0 267 24 0
2021-09-10 01:43:50 GMT 37.622280 -122.381577 0 268 24 0
2021-09-10 01:43:48 GMT 37.622292 -122.381302 0 270 24 0
2021-09-10 01:43:47 GMT 37.622292 -122.381172 0 270 24 0
2021-09-10 01:43:46 GMT 37.622292 -122.381027 0 269 24 0
2021-09-10 01:43:44 GMT 37.622280 -122.380760 0 269 24 0
2021-09-10 01:43:43 GMT 37.622280 -122.380478 0 269 24 0
2021-09-10 01:43:41 GMT 37.622280 -122.380318 0 268 23 0
2021-09-10 01:43:40 GMT 37.622292 -122.380203 0 269 23 0
2021-09-10 01:43:39 GMT 37.622292 -122.380051 0 268 23 0
2021-09-10 01:43:37 GMT 37.622280 -122.379807 0 267 26 0
2021-09-10 01:43:36 GMT 37.622299 -122.379646 0 270 25 0
2021-09-10 01:43:35 GMT 37.622292 -122.379517 0 269 27 0
2021-09-10 01:43:34 GMT 37.622318 -122.379211 0 282 31 0
2021-09-10 01:43:32 GMT 37.622311 -122.379028 0 285 31 0
2021-09-10 01:43:31 GMT 37.622269 -122.378868 0 284 32 0
2021-09-10 01:43:29 GMT 37.622200 -122.378487 0 282 30 0
2021-09-10 01:43:27 GMT 37.622162 -122.378151 0 290 36 0
2021-09-10 01:43:26 GMT 37.622108 -122.377960 0 291 37 0
2021-09-10 01:43:25 GMT 37.622051 -122.377762 0 292 38 0
2021-09-10 01:43:24 GMT 37.621990 -122.377579 0 292 40 0
2021-09-10 01:43:22 GMT 37.621849 -122.377151 0 293 44 0
2021-09-10 01:43:21 GMT 37.621769 -122.376900 0 294 41 0
2021-09-10 01:43:20 GMT 37.621609 -122.376480 0 294 45 0
2021-09-10 01:43:18 GMT 37.621540 -122.376251 0 296 49 0
2021-09-10 01:43:17 GMT 37.621441 -122.375992 0 296 50 0
2021-09-10 01:43:16 GMT 37.621330 -122.375740 0 295 50 0
2021-09-10 01:43:14 GMT 37.621151 -122.375237 0 298 57 0
2021-09-10 01:43:13 GMT 37.621040 -122.374962 0 298 59 0
2021-09-10 01:43:12 GMT 37.620911 -122.374657 0 298 59 0
2021-09-10 01:43:10 GMT 37.620651 -122.374069 0 297 60 0
2021-09-10 01:43:09 GMT 37.620522 -122.373756 0 297 60 0
2021-09-10 01:43:08 GMT 37.620392 -122.373459 0 297 61 0
2021-09-10 01:43:07 GMT 37.620270 -122.373161 0 298 63 0
2021-09-10 01:43:05 GMT 37.619999 -122.372528 0 297 68 0
2021-09-10 01:43:04 GMT 37.619869 -122.372177 0 299 68 0
2021-09-10 01:43:03 GMT 37.619709 -122.371857 100 297 73 0
2021-09-10 01:43:02 GMT 37.619572 -122.371498 100 298 75 0
2021-09-10 01:43:00 GMT 37.619240 -122.370743 100 298 78 -608
2021-09-10 01:42:59 GMT 37.619068 -122.370369 100 297 83 -608
2021-09-10 01:42:58 GMT 37.618900 -122.369926 100 298 83 -608
2021-09-10 01:42:56 GMT 37.618542 -122.369087 100 296 87 32
2021-09-10 01:42:55 GMT 37.618370 -122.368652 100 297 92 32
2021-09-10 01:42:54 GMT 37.618179 -122.368187 100 297 95 32
2021-09-10 01:42:52 GMT 37.617779 -122.367218 100 297 102 32
2021-09-10 01:42:51 GMT 37.617561 -122.366722 100 297 106 -192
2021-09-10 01:42:50 GMT 37.617111 -122.365623 100 297 110 -192
2021-09-10 01:42:48 GMT 37.616859 -122.365067 100 297 111 -192
2021-09-10 01:42:47 GMT 37.616638 -122.364502 125 297 113 96
2021-09-10 01:42:46 GMT 37.616402 -122.363937 125 297 116 -512
2021-09-10 01:42:44 GMT 37.615898 -122.362770 125 297 119 -512
2021-09-10 01:42:43 GMT 37.615639 -122.362167 125 297 120 -512
2021-09-10 01:42:42 GMT 37.615131 -122.360931 150 297 121 -512
2021-09-10 01:42:40 GMT 37.614880 -122.360321 150 297 123 -512
2021-09-10 01:42:39 GMT 37.614620 -122.359688 175 297 124 -512
2021-09-10 01:42:38 GMT 37.614349 -122.359070 175 297 127 -512
2021-09-10 01:42:36 GMT 37.613819 -122.357773 200 297 130 -512
2021-09-10 01:42:35 GMT 37.613548 -122.357094 200 298 130 -160
2021-09-10 01:42:34 GMT 37.613239 -122.356400 225 298 125 -160
2021-09-10 01:42:33 GMT 37.612961 -122.355759 225 297 125 -160
2021-09-10 01:42:31 GMT 37.612431 -122.354477 250 297 131 -160
2021-09-10 01:42:30 GMT 37.612160 -122.353790 250 298 130 -160
2021-09-10 01:42:29 GMT 37.611870 -122.353058 250 299 123 -160
2021-09-10 01:42:27 GMT 37.611301 -122.351822 275 298 120 -160
2021-09-10 01:42:26 GMT 37.611031 -122.351227 300 298 122 -160
2021-09-10 01:42:25 GMT 37.610760 -122.350632 300 297 126 -160
2021-09-10 01:42:24 GMT 37.610500 -122.350021 325 298 132 -160
2021-09-10 01:42:22 GMT 37.609928 -122.348663 325 299 132 -160
2021-09-10 01:42:21 GMT 37.609631 -122.347977 350 298 130 -160
2021-09-10 01:42:20 GMT 37.609341 -122.347351 350 298 134 -160
2021-09-10 01:42:19 GMT 37.608719 -122.345947 375 297 129 -160
2021-09-10 01:42:17 GMT 37.608410 -122.345306 375 295 129 -160
2021-09-10 01:42:16 GMT 37.608150 -122.344620 375 295 128 -160
2021-09-10 01:42:15 GMT 37.607891 -122.343948 400 295 128 -160
2021-09-10 01:42:13 GMT 37.607380 -122.342613 425 295 128 -160
2021-09-10 01:42:12 GMT 37.607121 -122.341942 450 295 128 -160
2021-09-10 01:42:11 GMT 37.606609 -122.340591 475 295 128 -160
2021-09-10 01:42:09 GMT 37.606339 -122.339897 475 295 126 -160
2021-09-10 01:42:08 GMT 37.606091 -122.339256 475 295 128 -160
2021-09-10 01:42:07 GMT 37.605572 -122.337868 500 295 123 -160
2021-09-10 01:42:05 GMT 37.605358 -122.337250 525 298 129 -160
2021-09-10 01:42:04 GMT 37.605099 -122.336594 525 298 129 -160
2021-09-10 01:42:03 GMT 37.604809 -122.335930 550 298 130 -160
2021-09-10 01:42:02 GMT 37.604519 -122.335251 550 298 129 -160
2021-09-10 01:42:00 GMT 37.603951 -122.333969 600 297 130 -160
2021-09-10 01:41:59 GMT 37.603668 -122.333282 600 298 129 -160
2021-09-10 01:41:58 GMT 37.603371 -122.332626 600 297 130 -160
2021-09-10 01:41:57 GMT 37.602798 -122.331284 625 296 127 -160
2021-09-10 01:41:55 GMT 37.602520 -122.330612 625 295 126 -160
2021-09-10 01:41:54 GMT 37.602280 -122.329941 625 296 126 -160
2021-09-10 01:41:53 GMT 37.601780 -122.328667 700 297 133 -160
2021-09-10 01:41:51 GMT 37.601490 -122.328003 650 297 133 -160
2021-09-10 01:41:50 GMT 37.601189 -122.327316 675 297 133 -160
2021-09-10 01:41:48 GMT 37.600609 -122.325958 700 296 133 -160
2021-09-10 01:41:47 GMT 37.600330 -122.325256 700 296 133 -160
2021-09-10 01:41:46 GMT 37.600040 -122.324577 700 296 132 -160
2021-09-10 01:41:45 GMT 37.599480 -122.323189 725 295 131 192
2021-09-10 01:41:43 GMT 37.599220 -122.322487 700 295 130 -1376
2021-09-10 01:41:42 GMT 37.598991 -122.321838 725 296 134 -1376
2021-09-10 01:41:40 GMT 37.598438 -122.320427 750 297 135 -1376
2021-09-10 01:41:39 GMT 37.598122 -122.319649 775 297 127 -1376
2021-09-10 01:41:37 GMT 37.597591 -122.318321 825 298 126 -1376
2021-09-10 01:41:36 GMT 37.597328 -122.317657 850 299 127 -1376
2021-09-10 01:41:35 GMT 37.597061 -122.317001 875 299 127 -128
2021-09-10 01:41:34 GMT 37.596741 -122.316360 875 298 126 -128
2021-09-10 01:41:33 GMT 37.596451 -122.315727 900 298 126 -128
2021-09-10 01:41:31 GMT 37.595890 -122.314468 950 298 127 -128
2021-09-10 01:41:30 GMT 37.595600 -122.313820 975 298 127 -128
2021-09-10 01:41:28 GMT 37.595070 -122.312561 1,000 298 130 -128
2021-09-10 01:41:27 GMT 37.594769 -122.311836 1,025 298 127 -128
2021-09-10 01:41:26 GMT 37.594509 -122.311279 1,025 298 132 -128
2021-09-10 01:41:25 GMT 37.593929 -122.309982 1,050 297 134 -128
2021-09-10 01:41:23 GMT 37.593620 -122.309280 1,075 297 134 -256
2021-09-10 01:41:22 GMT 37.593330 -122.308632 1,075 297 135 -256
2021-09-10 01:41:20 GMT 37.592751 -122.307259 1,075 297 135 -256
2021-09-10 01:41:19 GMT 37.592461 -122.306572 1,075 296 136 -256
2021-09-10 01:41:18 GMT 37.591888 -122.305130 1,075 297 135 -256
2021-09-10 01:41:16 GMT 37.591610 -122.304420 1,075 297 134 -256
2021-09-10 01:41:15 GMT 37.591309 -122.303719 1,100 296 134 160
2021-09-10 01:41:14 GMT 37.591019 -122.303047 1,100 297 134 -320
2021-09-10 01:41:11 GMT 37.590225 -122.301033 1,100 297 134 -320
2021-09-10 01:41:09 GMT 37.589539 -122.299393 1,125 297 132 -512
2021-09-10 01:41:08 GMT 37.589397 -122.299026 1,125 298 131 -640
2021-09-10 01:41:06 GMT 37.588531 -122.296944 1,175 298 127 -1024
2021-09-10 01:41:05 GMT 37.588531 -122.296944 1,175 298 127 -1024
2021-09-10 01:41:04 GMT 37.588257 -122.296242 1,175 298 126 -1088
2021-09-10 01:41:03 GMT 37.587952 -122.295509 1,200 298 124 -1088
2021-09-10 01:41:01 GMT 37.587067 -122.293358 1,250 297 122 -896
2021-09-10 01:41:00 GMT 37.587067 -122.293358 1,250 297 122 -896
2021-09-10 01:40:59 GMT 37.586838 -122.292793 1,275 297 122 -896
2021-09-10 01:40:57 GMT 37.586472 -122.291855 1,275 297 123 -768
2021-09-10 01:40:56 GMT 37.586185 -122.291145 1,300 298 124 -704
2021-09-10 01:40:55 GMT 37.585693 -122.289932 1,325 299 125 -768
2021-09-10 01:40:53 GMT 37.585438 -122.289352 1,325 299 125 -704
2021-09-10 01:40:52 GMT 37.585159 -122.288757 1,350 299 125 -576
2021-09-10 01:40:51 GMT 37.584507 -122.287209 1,375 298 125 -576
2021-09-10 01:40:48 GMT 37.583950 -122.285896 1,375 298 124 -448
2021-09-10 01:40:46 GMT 37.583344 -122.284515 1,400 297 123 -320
2021-09-10 01:40:45 GMT 37.582809 -122.283150 1,400 296 123 -192
2021-09-10 01:40:43 GMT 37.582581 -122.282509 1,400 296 123 -192
2021-09-10 01:40:41 GMT 37.582043 -122.281113 1,425 297 122 -192
2021-09-10 01:40:40 GMT 37.581757 -122.280403 1,425 297 122 -128
2021-09-10 01:40:38 GMT 37.581436 -122.279564 1,425 297 122 -64
2021-09-10 01:40:37 GMT 37.581207 -122.278999 1,425 297 123 -192
2021-09-10 01:40:35 GMT 37.580566 -122.277367 1,425 298 123 -256
2021-09-10 01:40:34 GMT 37.580292 -122.276726 1,425 298 123 -256
2021-09-10 01:40:33 GMT 37.579559 -122.274910 1,450 298 123 -256
2021-09-10 01:40:31 GMT 37.579559 -122.274910 1,450 298 124 -320
2021-09-10 01:40:29 GMT 37.579056 -122.273628 1,450 299 123 -384
2021-09-10 01:40:28 GMT 37.578735 -122.272934 1,450 298 123 -384
2021-09-10 01:40:27 GMT 37.578598 -122.272629 1,475 298 123 -320
2021-09-10 01:40:26 GMT 37.577911 -122.270996 1,475 298 121 -256
2021-09-10 01:40:24 GMT 37.577682 -122.270355 1,475 298 120 -256
2021-09-10 01:40:22 GMT 37.577179 -122.269127 1,475 298 119 -128
2021-09-10 01:40:21 GMT 37.576904 -122.268478 1,500 298 119 -128
2021-09-10 01:40:20 GMT 37.576687 -122.267921 1,500 299 119 -192
2021-09-10 01:40:18 GMT 37.576126 -122.266670 1,500 298 120 -64
2021-09-10 01:40:16 GMT 37.575577 -122.265442 1,500 298 120 -64
2021-09-10 01:40:15 GMT 37.574966 -122.263863 1,500 297 119 0
2021-09-10 01:40:13 GMT 37.574966 -122.263863 1,500 297 120 0
2021-09-10 01:40:12 GMT 37.574406 -122.262489 1,500 296 120 64
2021-09-10 01:40:10 GMT 37.574127 -122.261711 1,500 296 120 64
2021-09-10 01:40:09 GMT 37.573895 -122.261116 1,500 295 119 128
2021-09-10 01:40:08 GMT 37.573662 -122.260460 1,500 295 119 64
2021-09-10 01:40:06 GMT 37.573425 -122.259895 1,500 295 119 0
2021-09-10 01:40:05 GMT 37.572830 -122.258255 1,500 296 119 -128
2021-09-10 01:40:03 GMT 37.572636 -122.257652 1,500 296 119 -128
2021-09-10 01:40:02 GMT 37.572235 -122.256737 1,500 296 118 -64
2021-09-10 01:40:01 GMT 37.572033 -122.256157 1,500 297 120 -128
2021-09-10 01:39:59 GMT 37.571705 -122.255325 1,500 297 123 -256
2021-09-10 01:39:58 GMT 37.571194 -122.254005 1,525 298 124 -384
2021-09-10 01:39:57 GMT 37.570774 -122.252991 1,525 298 127 -768
2021-09-10 01:39:55 GMT 37.570404 -122.252098 1,575 299 128 -832
2021-09-10 01:39:54 GMT 37.569752 -122.250603 1,600 297 131 -640
2021-09-10 01:39:51 GMT 37.569469 -122.249947 1,600 297 132 -640
2021-09-10 01:39:50 GMT 37.569191 -122.249290 1,600 298 131 -832
2021-09-10 01:39:49 GMT 37.568913 -122.248634 1,625 298 130 -768
2021-09-10 01:39:48 GMT 37.568481 -122.247620 1,650 298 130 -704
2021-09-10 01:39:47 GMT 37.568169 -122.246841 1,650 298 130 -704
2021-09-10 01:39:45 GMT 37.567612 -122.245575 1,675 297 133 -640
2021-09-10 01:39:43 GMT 37.567245 -122.244637 1,675 297 135 -576
2021-09-10 01:39:42 GMT 37.567005 -122.243980 1,700 297 138 -640
2021-09-10 01:39:40 GMT 37.566330 -122.242302 1,725 297 143 -640
2021-09-10 01:39:39 GMT 37.566055 -122.241539 1,725 296 145 -704
2021-09-10 01:39:38 GMT 37.565735 -122.240784 1,750 296 148 -704
2021-09-10 01:39:37 GMT 37.565144 -122.239143 1,750 296 151 -640
2021-09-10 01:39:36 GMT 37.564816 -122.238365 1,750 295 153 -576
2021-09-10 01:39:34 GMT 37.564537 -122.237526 1,775 295 156 -576
2021-09-10 01:39:33 GMT 37.564270 -122.236809 1,800 294 158 -640
2021-09-10 01:39:31 GMT 37.563606 -122.234840 1,800 294 160 -896
2021-09-10 01:39:30 GMT 37.563309 -122.234062 1,825 294 160 -896
2021-09-10 01:39:29 GMT 37.562988 -122.233070 1,850 293 163 -1088
2021-09-10 01:39:28 GMT 37.562862 -122.232635 1,850 293 164 -1088
2021-09-10 01:39:26 GMT 37.560837 -122.226234 2,000 291 168 -1152
2021-09-10 01:39:22 GMT 37.560837 -122.226234 1,975 291 169 -1152
2021-09-10 01:39:19 GMT 37.560394 -122.224869 2,050 289 171 -1088
2021-09-10 01:39:16 GMT 37.559555 -122.221786 2,050 288 172 -1152
2021-09-10 01:39:13 GMT 37.558594 -122.217934 2,125 285 173 -1152
2021-09-10 01:39:08 GMT 37.557739 -122.213943 2,225 284 175 -1344
2021-09-10 01:39:04 GMT 37.557041 -122.210365 2,275 285 176 -1408
2021-09-10 01:39:01 GMT 37.556438 -122.207375 2,350 285 179 -1600
2021-09-10 01:38:57 GMT 37.555573 -122.202858 2,500 285 179 -1600
2021-09-10 01:38:55 GMT 37.555115 -122.200638 2,525 286 179 -1600
2021-09-10 01:38:52 GMT 37.554295 -122.197105 2,625 288 179 -1664
2021-09-10 01:38:46 GMT 37.552898 -122.191971 2,750 294 180 -1792
2021-09-10 01:38:44 GMT 37.552059 -122.189461 2,900 296 180 -1856
2021-09-10 01:38:41 GMT 37.551174 -122.186958 2,900 296 180 -1856
2021-09-10 01:38:36 GMT 37.548386 -122.179482 3,225 293 193 -128
2021-09-10 01:38:33 GMT 37.548386 -122.179482 3,100 294 180 -1088
2021-09-10 01:38:29 GMT 37.546803 -122.174660 3,150 293 186 -384
2021-09-10 01:38:24 GMT 37.545452 -122.170654 3,175 293 188 -640
2021-09-10 01:38:22 GMT 37.544613 -122.168030 3,200 293 188 -704
2021-09-10 01:38:18 GMT 37.543076 -122.163467 3,225 293 190 0
2021-09-10 01:38:15 GMT 37.542236 -122.160919 3,225 293 193 -128
2021-09-10 01:38:13 GMT 37.541401 -122.158417 3,225 292 200 128
2021-09-10 01:38:10 GMT 37.540558 -122.155754 3,225 292 202 -64
2021-09-10 01:38:04 GMT 37.538681 -122.149796 3,250 292 207 -576
2021-09-10 01:38:01 GMT 37.537350 -122.145638 3,300 291 213 -896
2021-09-10 01:37:58 GMT 37.536652 -122.143372 3,750 290 217 -1792
2021-09-10 01:37:53 GMT 37.534466 -122.136086 3,425 291 217 -1280
2021-09-10 01:37:49 GMT 37.531670 -122.126595 3,525 290 217 -1920
2021-09-10 01:37:45 GMT 37.531670 -122.126595 3,650 290 216 -2112
2021-09-10 01:37:43 GMT 37.531204 -122.124916 3,700 290 217 -2112
2021-09-10 01:37:41 GMT 37.530228 -122.121574 3,775 291 217 -1984
2021-09-10 01:37:38 GMT 37.529205 -122.118050 3,875 292 217 -1920
2021-09-10 01:37:33 GMT 37.527557 -122.112747 4,025 292 218 -2176
2021-09-10 01:37:31 GMT 37.526550 -122.109573 4,100 293 218 -2368
2021-09-10 01:37:28 GMT 37.525726 -122.107079 4,450 291 223 -1024
2021-09-10 01:37:23 GMT 37.523804 -122.101097 4,325 292 219 -1344
2021-09-10 01:37:20 GMT 37.522385 -122.096443 4,400 291 220 -960
2021-09-10 01:37:16 GMT 37.521103 -122.092056 4,425 291 221 -960
2021-09-10 01:37:13 GMT 37.520370 -122.089661 4,500 291 223 -1152
2021-09-10 01:37:11 GMT 37.519382 -122.086349 4,550 291 223 -1344
2021-09-10 01:37:06 GMT 37.517891 -122.081512 4,625 291 225 -1280
2021-09-10 01:37:02 GMT 37.516342 -122.076218 4,725 291 225 -1280
2021-09-10 01:37:00 GMT 37.515381 -122.073067 4,775 291 225 -1216
2021-09-10 01:36:57 GMT 37.513916 -122.068390 4,850 292 226 -1024
2021-09-10 01:36:52 GMT 37.511536 -122.060738 4,925 292 229 -1024
2021-09-10 01:36:50 GMT 37.511536 -122.060738 4,950 291 229 -1088
2021-09-10 01:36:47 GMT 37.510258 -122.056374 5,000 290 230 -1216
2021-09-10 01:36:41 GMT 37.508331 -122.049690 5,100 290 232 -1344
2021-09-10 01:36:39 GMT 37.507828 -122.047882 5,150 290 233 -1344
2021-09-10 01:36:36 GMT 37.506348 -122.042641 5,225 289 234 -1472
2021-09-10 01:36:31 GMT 37.504898 -122.037361 5,350 288 236 -1600
2021-09-10 01:36:29 GMT 37.504204 -122.034576 5,675 288 238 -1600
2021-09-10 01:36:27 GMT 37.503506 -122.031952 5,425 289 238 -1664
2021-09-10 01:36:24 GMT 37.502716 -122.028786 5,575 289 242 -1472
2021-09-10 01:36:21 GMT 37.501457 -122.024010 5,600 289 242 -1472
2021-09-10 01:36:19 GMT 37.500572 -122.020790 5,625 288 242 -1664
2021-09-10 01:36:15 GMT 37.499222 -122.015266 5,750 287 242 -1792
2021-09-10 01:36:11 GMT 37.498013 -122.010277 5,850 287 241 -1728
2021-09-10 01:36:08 GMT 37.497116 -122.006386 5,925 286 241 -1600
2021-09-10 01:36:05 GMT 37.496059 -122.001678 5,975 286 241 -1536
2021-09-10 01:36:00 GMT 37.494431 -121.994339 6,075 285 245 -384
2021-09-10 01:35:57 GMT 37.493408 -121.989502 6,075 285 248 -192
2021-09-10 01:35:54 GMT 37.492676 -121.985817 6,100 285 255 -192
2021-09-10 01:35:51 GMT 37.491943 -121.982430 6,100 285 255 -192
2021-09-10 01:35:48 GMT 37.491077 -121.978271 6,125 285 258 -384
2021-09-10 01:35:43 GMT 37.489449 -121.969734 6,175 280 263 -1216
2021-09-10 01:35:39 GMT 37.488602 -121.963844 6,250 277 263 -1728
2021-09-10 01:35:36 GMT 37.488235 -121.959290 6,350 275 262 -1984
2021-09-10 01:35:33 GMT 37.488007 -121.954376 6,450 272 261 -1920
2021-09-10 01:35:30 GMT 37.487911 -121.951225 6,525 272 261 -1984
2021-09-10 01:35:27 GMT 37.487820 -121.946991 6,600 272 260 -1920
2021-09-10 01:35:24 GMT 37.487640 -121.939537 6,800 272 259 -1792
2021-09-10 01:35:20 GMT 37.487541 -121.935463 6,825 272 259 -1728
2021-09-10 01:35:18 GMT 37.487503 -121.932350 6,875 272 260 -1600
2021-09-10 01:35:16 GMT 37.487259 -121.923401 6,950 272 260 -1344
2021-09-10 01:35:12 GMT 37.487259 -121.923401 7,000 272 261 -1024
2021-09-10 01:35:09 GMT 37.487167 -121.920357 7,025 272 262 -896
2021-09-10 01:35:07 GMT 37.487091 -121.916862 7,050 272 262 -640
2021-09-10 01:35:05 GMT 37.486980 -121.912178 7,075 272 261 -448
2021-09-10 01:35:02 GMT 37.486935 -121.906387 7,100 271 260 -64
2021-09-10 01:34:59 GMT 37.486935 -121.904892 7,100 269 259 64
2021-09-10 01:34:57 GMT 37.486935 -121.900955 7,100 268 258 64
2021-09-10 01:34:55 GMT 37.487000 -121.898743 7,075 264 257 -64
2021-09-10 01:34:53 GMT 37.487213 -121.895279 7,100 260 256 -64
2021-09-10 01:34:49 GMT 37.487961 -121.888931 7,100 258 255 -128
2021-09-10 01:34:45 GMT 37.488750 -121.884415 7,100 255 254 -192
2021-09-10 01:34:43 GMT 37.489243 -121.882324 7,100 255 254 -256
2021-09-10 01:34:41 GMT 37.490021 -121.878876 7,125 254 253 -448
2021-09-10 01:34:38 GMT 37.491123 -121.874207 7,200 253 254 -1152
2021-09-10 01:34:36 GMT 37.491989 -121.870697 7,200 253 254 -1152
2021-09-10 01:34:34 GMT 37.492706 -121.867699 7,225 253 254 -1152
2021-09-10 01:34:31 GMT 37.493778 -121.863457 7,300 253 256 -1152
2021-09-10 01:34:28 GMT 37.494801 -121.859215 7,325 253 256 -1152
2021-09-10 01:34:25 GMT 37.495697 -121.855621 7,400 254 257 -1152
2021-09-10 01:34:23 GMT 37.496571 -121.852051 7,425 253 257 -1216
2021-09-10 01:34:20 GMT 37.497299 -121.849075 7,475 253 257 -1152
2021-09-10 01:34:17 GMT 37.498627 -121.843636 7,525 253 258 -1152
2021-09-10 01:34:13 GMT 37.500046 -121.837914 7,600 253 258 -1152
2021-09-10 01:34:11 GMT 37.500916 -121.834465 7,650 253 257 -1216
2021-09-10 01:34:07 GMT 37.502701 -121.827278 7,775 253 258 -1152
2021-09-10 01:34:04 GMT 37.503479 -121.824120 7,775 254 258 -1216
2021-09-10 01:34:02 GMT 37.503880 -121.822556 7,800 254 259 -1152
2021-09-10 01:34:00 GMT 37.504906 -121.818199 7,850 254 259 -1152
2021-09-10 01:33:57 GMT 37.506042 -121.813484 7,925 254 260 -1152
2021-09-10 01:33:54 GMT 37.507095 -121.809105 7,975 254 260 -1152
2021-09-10 01:33:51 GMT 37.507919 -121.805656 8,025 253 259 -1152
2021-09-10 01:33:48 GMT 37.508816 -121.802078 8,050 254 258 -1216
2021-09-10 01:33:45 GMT 37.510208 -121.796341 8,125 254 257 -1152
2021-09-10 01:33:41 GMT 37.511093 -121.792580 8,175 254 257 -1216
2021-09-10 01:33:39 GMT 37.511791 -121.789719 8,225 254 258 -1216
2021-09-10 01:33:36 GMT 37.513237 -121.783684 8,275 254 259 -1152
2021-09-10 01:33:32 GMT 37.514328 -121.779243 8,350 254 259 -1216
2021-09-10 01:33:30 GMT 37.515335 -121.774857 8,575 254 292 -1344
2021-09-10 01:33:25 GMT 37.516869 -121.768639 8,525 254 262 -1216
2021-09-10 01:33:22 GMT 37.517944 -121.764107 8,525 254 262 -1152
2021-09-10 01:33:20 GMT 37.518452 -121.761894 8,575 254 263 -1152
2021-09-10 01:33:15 GMT 37.520279 -121.754402 8,650 254 265 -1152
2021-09-10 01:33:11 GMT 37.521881 -121.747627 8,750 254 266 -1152
2021-09-10 01:33:08 GMT 37.522781 -121.743622 8,800 254 266 -1152
2021-09-10 01:33:02 GMT 37.524921 -121.734665 8,950 254 269 -1152
2021-09-10 01:32:59 GMT 37.525818 -121.730911 8,950 254 269 -1152
2021-09-10 01:32:53 GMT 37.527878 -121.722206 9,050 254 272 -1152
2021-09-10 01:32:51 GMT 37.529018 -121.717468 9,100 254 275 -1216
2021-09-10 01:32:48 GMT 37.530167 -121.712448 9,175 254 275 -1216
2021-09-10 01:32:44 GMT 37.531300 -121.707680 9,225 254 277 -1216
2021-09-10 01:32:40 GMT 37.532547 -121.702217 9,300 254 278 -1216
2021-09-10 01:32:38 GMT 37.533115 -121.699913 9,325 254 280 -1216
2021-09-10 01:32:36 GMT 37.534058 -121.695969 9,425 254 292 -1344
2021-09-10 01:32:33 GMT 37.535210 -121.691078 9,450 254 282 -1344
2021-09-10 01:32:30 GMT 37.536804 -121.684280 9,550 254 284 -1408
2021-09-10 01:32:26 GMT 37.538223 -121.678261 9,625 254 287 -1536
2021-09-10 01:32:22 GMT 37.539211 -121.674240 9,700 254 288 -1536
2021-09-10 01:32:20 GMT 37.540562 -121.668625 9,900 254 290 -1472
2021-09-10 01:32:16 GMT 37.541958 -121.662659 9,850 254 291 -1408
2021-09-10 01:32:12 GMT 37.543262 -121.657104 9,925 254 293 -1280
2021-09-10 01:32:09 GMT 37.544815 -121.650734 10,000 254 293 -1088
2021-09-10 01:32:06 GMT 37.545776 -121.646820 10,025 253 292 -1024
2021-09-10 01:32:03 GMT 37.546692 -121.642906 10,075 253 291 -832
2021-09-10 01:32:00 GMT 37.548248 -121.636765 10,100 253 291 -64
2021-09-10 01:31:57 GMT 37.550713 -121.626534 10,075 254 292 128
2021-09-10 01:31:54 GMT 37.550713 -121.626534 10,075 255 292 128
2021-09-10 01:31:51 GMT 37.551819 -121.621460 10,075 258 293 0
2021-09-10 01:31:48 GMT 37.552643 -121.616432 10,075 262 295 -64
2021-09-10 01:31:45 GMT 37.553055 -121.613396 10,075 262 294 -64
2021-09-10 01:31:43 GMT 37.553513 -121.610001 10,075 262 296 -64
2021-09-10 01:31:40 GMT 37.554108 -121.604736 10,075 262 296 -64
2021-09-10 01:31:37 GMT 37.554794 -121.598785 10,075 262 297 0
2021-09-10 01:31:33 GMT 37.555969 -121.589035 10,100 262 296 -64
2021-09-10 01:31:30 GMT 37.556168 -121.587151 10,100 262 295 0
2021-09-10 01:31:28 GMT 37.556671 -121.583061 10,075 262 294 64
2021-09-10 01:31:25 GMT 37.557228 -121.578171 10,075 262 294 128
2021-09-10 01:31:23 GMT 37.557693 -121.574112 10,075 262 295 0
2021-09-10 01:31:19 GMT 37.558250 -121.569695 10,075 262 295 0
2021-09-10 01:31:17 GMT 37.558685 -121.565765 10,075 262 296 -64
2021-09-10 01:31:14 GMT 37.559601 -121.558044 10,100 262 301 -256
2021-09-10 01:31:10 GMT 37.560242 -121.552322 10,100 262 304 -192
2021-09-10 01:31:07 GMT 37.560764 -121.547539 10,100 262 307 -256
2021-09-10 01:31:05 GMT 37.561092 -121.544731 10,175 263 309 -320
2021-09-10 01:31:02 GMT 37.561661 -121.539932 10,125 263 311 -448
2021-09-10 01:30:59 GMT 37.562393 -121.533447 10,175 262 316 -832
2021-09-10 01:30:56 GMT 37.562988 -121.527954 10,225 262 318 -1024
2021-09-10 01:30:53 GMT 37.563812 -121.520943 10,300 262 322 -1536
2021-09-10 01:30:49 GMT 37.564629 -121.514046 10,425 262 325 -2048
2021-09-10 01:30:45 GMT 37.565414 -121.507095 10,750 262 329 -2176
2021-09-10 01:30:42 GMT 37.566101 -121.501015 10,650 263 330 -2176
2021-09-10 01:30:39 GMT 37.566490 -121.497444 10,700 263 331 -2176
2021-09-10 01:30:36 GMT 37.567062 -121.492249 10,800 263 332 -2176
2021-09-10 01:30:34 GMT 37.567608 -121.487053 10,900 263 334 -2240
2021-09-10 01:30:31 GMT 37.568344 -121.480331 11,025 263 337 -2240
2021-09-10 01:30:27 GMT 37.568985 -121.474487 11,125 263 338 -2368
2021-09-10 01:30:24 GMT 37.569809 -121.466652 11,700 263 341 -2560
2021-09-10 01:30:21 GMT 37.570587 -121.459770 11,450 262 342 -2560
2021-09-10 01:30:18 GMT 37.571148 -121.454636 11,775 262 346 -2880
2021-09-10 01:30:13 GMT 37.572464 -121.443336 11,775 262 346 -2880
2021-09-10 01:30:09 GMT 37.573013 -121.438545 11,875 262 347 -2880
2021-09-10 01:30:07 GMT 37.573654 -121.433350 12,000 262 348 -2880
2021-09-10 01:30:04 GMT 37.574341 -121.427330 12,150 262 349 -2944
2021-09-10 01:30:02 GMT 37.574966 -121.421852 12,250 262 350 -2816
2021-09-10 01:29:59 GMT 37.575485 -121.417625 12,350 262 350 -2880
2021-09-10 01:29:57 GMT 37.576035 -121.412598 12,450 262 351 -2816
2021-09-10 01:29:52 GMT 37.577316 -121.401436 12,750 262 353 -2816
2021-09-10 01:29:49 GMT 37.578003 -121.395302 12,850 262 354 -2944
2021-09-10 01:29:46 GMT 37.578503 -121.391045 12,950 262 355 -2880
2021-09-10 01:29:41 GMT 37.579575 -121.382027 13,125 262 355 -2944
2021-09-10 01:29:38 GMT 37.580460 -121.374207 13,350 262 357 -2944
2021-09-10 01:29:36 GMT 37.580978 -121.369881 13,425 262 357 -3072
2021-09-10 01:29:32 GMT 37.581985 -121.360825 14,025 262 358 -3200
2021-09-10 01:29:27 GMT 37.582973 -121.352356 13,850 262 358 -3200
2021-09-10 01:29:25 GMT 37.583439 -121.348175 13,950 262 359 -3264
2021-09-10 01:29:20 GMT 37.584972 -121.334915 14,325 262 359 -3456
2021-09-10 01:29:17 GMT 37.585579 -121.329964 14,475 262 359 -3520
2021-09-10 01:29:15 GMT 37.585953 -121.326675 14,500 262 359 -3520
2021-09-10 01:29:11 GMT 37.586792 -121.319389 14,700 262 359 -3456
2021-09-10 01:29:09 GMT 37.587486 -121.313362 15,525 262 359 -3584
2021-09-10 01:29:05 GMT 37.588531 -121.304085 15,100 262 359 -3584
2021-09-10 01:29:00 GMT 37.589535 -121.295570 15,350 262 359 -3584
2021-09-10 01:28:56 GMT 37.590466 -121.287270 15,575 262 359 -3584
2021-09-10 01:28:54 GMT 37.590820 -121.284210 15,650 262 359 -3584
2021-09-10 01:28:51 GMT 37.591827 -121.275917 15,950 261 358 -3520
2021-09-10 01:28:48 GMT 37.592560 -121.269958 16,125 261 357 -3520
2021-09-10 01:28:44 GMT 37.593796 -121.260658 16,425 261 358 -3520
2021-09-10 01:28:40 GMT 37.595772 -121.246132 16,500 261 356 -3456
2021-09-10 01:28:37 GMT 37.595772 -121.246132 16,675 261 356 -3328
2021-09-10 01:28:34 GMT 37.596474 -121.240875 16,800 261 355 -3200
2021-09-10 01:28:29 GMT 37.597637 -121.232277 17,050 261 354 -2816
2021-09-10 01:28:26 GMT 37.598473 -121.226189 17,125 261 355 -2368
2021-09-10 01:28:23 GMT 37.599266 -121.220039 17,225 261 355 -2304
2021-09-10 01:28:20 GMT 37.600296 -121.212509 17,425 261 356 -2304
2021-09-10 01:28:16 GMT 37.601074 -121.206779 17,475 261 357 -2304
2021-09-10 01:28:13 GMT 37.602264 -121.197784 17,725 261 358 -2304
2021-09-10 01:28:09 GMT 37.603268 -121.190605 17,750 261 358 -2304
2021-09-10 01:28:07 GMT 37.603828 -121.186485 17,825 261 358 -2368
2021-09-10 01:28:03 GMT 37.604942 -121.178246 17,975 261 358 -2304
2021-09-10 01:28:00 GMT 37.605968 -121.170837 18,150 261 359 -2240
2021-09-10 01:27:57 GMT 37.606575 -121.166306 18,200 261 359 -2304
2021-09-10 01:27:53 GMT 37.608902 -121.149406 18,400 261 360 -2304
2021-09-10 01:27:49 GMT 37.608902 -121.149406 18,525 261 363 -2368
2021-09-10 01:27:47 GMT 37.609589 -121.144196 18,575 261 361 -2368
2021-09-10 01:27:41 GMT 37.611183 -121.132385 18,800 261 363 -2368
2021-09-10 01:27:38 GMT 37.611835 -121.127373 18,875 261 364 -2368
2021-09-10 01:27:36 GMT 37.612473 -121.122978 18,975 261 365 -2368
2021-09-10 01:27:32 GMT 37.613697 -121.113998 19,125 261 367 -2304
2021-09-10 01:27:28 GMT 37.614807 -121.105743 19,275 261 368 -2304
2021-09-10 01:27:26 GMT 37.615540 -121.100250 19,350 261 369 -2240
2021-09-10 01:27:22 GMT 37.616631 -121.092445 19,500 261 369 -2304
2021-09-10 01:27:20 GMT 37.617371 -121.087105 19,575 261 369 -2304
2021-09-10 01:27:17 GMT 37.617794 -121.083961 19,650 261 369 -2368
2021-09-10 01:27:15 GMT 37.618492 -121.078827 19,725 261 369 -2368
2021-09-10 01:27:11 GMT 37.619705 -121.069748 20,775 261 377 -2304
2021-09-10 01:27:06 GMT 37.620956 -121.060562 20,050 261 371 -2304
2021-09-10 01:27:00 GMT 37.622864 -121.046249 20,250 261 374 -2304
2021-09-10 01:26:57 GMT 37.623688 -121.039825 20,400 261 374 -2304
2021-09-10 01:26:54 GMT 37.624329 -121.035088 20,475 262 380 -2304
2021-09-10 01:26:50 GMT 37.625793 -121.024338 20,675 261 376 -2368
2021-09-10 01:26:46 GMT 37.626869 -121.016312 20,800 261 376 -2368
2021-09-10 01:26:39 GMT 37.628952 -121.000961 21,025 261 377 -2304
2021-09-10 01:26:35 GMT 37.630222 -120.991234 21,225 261 377 -2368
2021-09-10 01:26:29 GMT 37.631744 -120.979691 21,425 262 378 -2432
2021-09-10 01:26:27 GMT 37.632431 -120.974083 21,525 262 379 -2304
2021-09-10 01:26:24 GMT 37.633209 -120.967476 21,775 262 381 -2368
2021-09-10 01:26:19 GMT 37.634537 -120.956551 21,875 262 383 -2432
2021-09-10 01:26:15 GMT 37.635590 -120.947723 21,975 262 384 -2432
2021-09-10 01:26:12 GMT 37.636230 -120.942406 22,075 262 385 -2368
2021-09-10 01:26:08 GMT 37.637577 -120.931473 22,250 262 388 -2368
2021-09-10 01:26:03 GMT 37.638927 -120.920303 22,425 262 389 -2304
2021-09-10 01:25:58 GMT 37.640182 -120.909973 22,600 262 390 -2304
2021-09-10 01:25:55 GMT 37.640976 -120.903229 22,700 262 390 -2240
2021-09-10 01:25:52 GMT 37.641674 -120.897377 22,800 262 390 -2240
2021-09-10 01:25:48 GMT 37.642822 -120.888176 22,950 262 390 -1920
2021-09-10 01:25:46 GMT 37.643417 -120.883209 23,000 262 390 -1792
2021-09-10 01:25:43 GMT 37.644142 -120.877197 23,075 262 390 -1856
2021-09-10 01:25:40 GMT 37.645027 -120.869972 23,175 262 390 -1856
2021-09-10 01:25:37 GMT 37.645908 -120.862328 23,300 262 390 -1920
2021-09-10 01:25:34 GMT 37.646793 -120.855103 23,400 262 390 -1856
2021-09-10 01:25:31 GMT 37.647217 -120.851768 23,400 262 390 -1856
2021-09-10 01:25:27 GMT 37.648361 -120.842308 23,525 262 389 -1920
2021-09-10 01:25:25 GMT 37.649094 -120.836464 23,625 262 387 -1792
2021-09-10 01:25:22 GMT 37.649635 -120.831818 23,675 262 387 -1792
2021-09-10 01:25:17 GMT 37.651264 -120.818443 23,825 262 384 -1408
2021-09-10 01:25:15 GMT 37.652527 -120.808060 23,900 262 384 -1280
2021-09-10 01:25:12 GMT 37.652527 -120.808060 23,925 262 383 -1216
2021-09-10 01:25:04 GMT 37.654770 -120.788597 24,000 262 384 0
2021-09-10 01:25:01 GMT 37.655315 -120.783928 24,000 262 385 64
2021-09-10 01:24:57 GMT 37.656326 -120.775276 24,000 262 387 0
2021-09-10 01:24:54 GMT 37.656967 -120.769897 24,000 262 388 -64
2021-09-10 01:24:51 GMT 37.658058 -120.760284 24,000 262 390 -128
2021-09-10 01:24:46 GMT 37.659164 -120.751083 24,000 262 391 -64
2021-09-10 01:24:43 GMT 37.660263 -120.741150 24,000 262 392 64
2021-09-10 01:24:38 GMT 37.661545 -120.729813 24,000 263 395 128
2021-09-10 01:24:33 GMT 37.662689 -120.719757 24,000 263 396 64
2021-09-10 01:24:30 GMT 37.663422 -120.712868 24,000 262 398 0
2021-09-10 01:24:26 GMT 37.664383 -120.704567 24,000 262 401 -64
2021-09-10 01:24:23 GMT 37.665207 -120.697144 24,000 262 403 -128
2021-09-10 01:24:19 GMT 37.666168 -120.688789 24,000 262 403 -128
2021-09-10 01:24:16 GMT 37.667233 -120.679741 24,025 262 405 -128
2021-09-10 01:24:13 GMT 37.667885 -120.674126 24,025 262 406 -64
2021-09-10 01:24:11 GMT 37.668488 -120.668991 24,025 262 407 -64
2021-09-10 01:24:08 GMT 37.669277 -120.661949 24,025 262 407 -64
2021-09-10 01:24:05 GMT 37.669922 -120.656059 24,025 262 407 0
2021-09-10 01:24:01 GMT 37.671143 -120.645523 24,025 262 407 64
2021-09-10 01:23:57 GMT 37.672348 -120.634964 24,000 262 407 0
2021-09-10 01:23:54 GMT 37.672726 -120.631432 24,025 262 407 0
2021-09-10 01:23:50 GMT 37.674259 -120.618301 24,000 262 407 0
2021-09-10 01:23:47 GMT 37.674774 -120.613579 24,000 262 407 0
2021-09-10 01:23:44 GMT 37.675655 -120.606056 24,000 262 407 0
2021-09-10 01:23:40 GMT 37.677109 -120.593590 24,000 262 407 -64
2021-09-10 01:23:38 GMT 37.678406 -120.582596 24,000 262 407 -64
2021-09-10 01:23:34 GMT 37.678406 -120.582596 24,025 262 406 -64
2021-09-10 01:23:30 GMT 37.679398 -120.573959 24,025 262 406 0
2021-09-10 01:23:27 GMT 37.680172 -120.567131 24,025 262 407 0
2021-09-10 01:23:23 GMT 37.681503 -120.555664 24,025 262 406 0
2021-09-10 01:23:20 GMT 37.682007 -120.550995 24,000 262 406 64
2021-09-10 01:23:17 GMT 37.683010 -120.542290 24,000 262 406 64
2021-09-10 01:23:13 GMT 37.683838 -120.535042 24,000 262 406 0
2021-09-10 01:23:10 GMT 37.685120 -120.524284 24,000 262 405 -64
2021-09-10 01:23:06 GMT 37.685944 -120.517036 24,000 262 405 -64
2021-09-10 01:23:02 GMT 37.686859 -120.508858 24,000 263 404 64
2021-09-10 01:22:59 GMT 37.687820 -120.500443 24,000 262 405 0
2021-09-10 01:22:55 GMT 37.688740 -120.492729 24,000 262 405 0
2021-09-10 01:22:53 GMT 37.689606 -120.485077 24,000 263 404 0
2021-09-10 01:22:50 GMT 37.690323 -120.478760 24,000 263 404 0
2021-09-10 01:22:45 GMT 37.691620 -120.466843 24,000 263 404 0
2021-09-10 01:22:42 GMT 37.692398 -120.459831 24,000 263 405 0
2021-09-10 01:22:39 GMT 37.693268 -120.451881 24,000 263 405 0
2021-09-10 01:22:36 GMT 37.694000 -120.445084 24,000 263 405 0
2021-09-10 01:22:32 GMT 37.694824 -120.437386 24,000 263 406 -64
2021-09-10 01:22:28 GMT 37.695862 -120.427231 24,000 264 407 -64
2021-09-10 01:22:24 GMT 37.696560 -120.418755 24,025 266 409 -64
2021-09-10 01:22:20 GMT 37.697021 -120.410858 24,025 269 412 64
2021-09-10 01:22:17 GMT 37.697350 -120.403465 24,000 269 411 64
2021-09-10 01:22:14 GMT 37.697491 -120.393913 24,000 270 413 64
2021-09-10 01:22:08 GMT 37.697388 -120.379181 24,000 273 415 -64
2021-09-10 01:22:02 GMT 37.696747 -120.363464 24,000 275 417 -64
2021-09-10 01:21:57 GMT 37.696140 -120.354210 24,000 276 418 0
2021-09-10 01:21:52 GMT 37.695255 -120.342087 24,000 276 419 64
2021-09-10 01:21:48 GMT 37.694420 -120.331345 24,000 276 420 64
2021-09-10 01:21:45 GMT 37.694046 -120.326241 24,000 276 420 64
2021-09-10 01:21:42 GMT 37.693394 -120.317665 24,000 276 420 0
2021-09-10 01:21:39 GMT 37.692856 -120.310112 24,000 276 420 0
2021-09-10 01:21:37 GMT 37.692444 -120.304268 24,000 276 420 0
2021-09-10 01:21:30 GMT 37.691208 -120.287201 24,000 276 420 -64
2021-09-10 01:21:26 GMT 37.690601 -120.279160 24,000 276 419 -64
2021-09-10 01:21:21 GMT 37.689697 -120.267220 24,000 276 419 0
2021-09-10 01:21:16 GMT 37.688644 -120.252609 24,000 276 419 0
2021-09-10 01:21:11 GMT 37.687805 -120.241180 24,000 276 419 0
2021-09-10 01:21:09 GMT 37.687294 -120.234856 24,000 276 419 0
2021-09-10 01:21:05 GMT 37.686550 -120.225121 24,000 276 419 0
2021-09-10 01:21:01 GMT 37.685852 -120.215866 24,000 276 419 0
2021-09-10 01:20:54 GMT 37.684570 -120.198608 24,000 276 418 -64
2021-09-10 01:20:49 GMT 37.683849 -120.189117 24,000 276 418 -64
2021-09-10 01:20:45 GMT 37.682968 -120.177223 24,000 276 418 64
2021-09-10 01:20:42 GMT 37.682602 -120.172371 24,000 276 418 64
2021-09-10 01:20:38 GMT 37.681942 -120.163383 24,000 276 418 64
2021-09-10 01:20:33 GMT 37.681011 -120.151199 24,000 276 419 0
2021-09-10 01:20:29 GMT 37.680038 -120.139297 24,000 276 419 -64
2021-09-10 01:20:24 GMT 37.679077 -120.126671 24,000 276 418 0
2021-09-10 01:20:17 GMT 37.677979 -120.112061 24,000 276 419 -64
2021-09-10 01:20:13 GMT 37.677200 -120.101837 24,000 276 419 -64
2021-09-10 01:20:05 GMT 37.675781 -120.082375 24,000 276 421 -64
2021-09-10 01:20:02 GMT 37.675232 -120.075073 24,000 276 419 -64
2021-09-10 01:19:55 GMT 37.673935 -120.057816 24,000 276 419 0
2021-09-10 01:19:53 GMT 37.673470 -120.051964 24,000 276 419 -64
2021-09-10 01:19:47 GMT 37.672165 -120.034637 24,000 276 421 -64
2021-09-10 01:19:41 GMT 37.671143 -120.021751 24,025 276 421 -64
2021-09-10 01:19:33 GMT 37.669559 -120.000793 24,025 276 420 0
2021-09-10 01:19:30 GMT 37.669373 -119.998344 24,025 276 419 0
2021-09-10 01:19:26 GMT 37.668396 -119.985153 24,025 276 419 0
2021-09-10 01:19:23 GMT 37.667744 -119.976433 24,000 276 418 64
2021-09-10 01:19:20 GMT 37.667511 -119.973030 24,000 276 418 64
2021-09-10 01:19:16 GMT 37.666580 -119.960854 24,000 276 417 64
2021-09-10 01:19:10 GMT 37.665527 -119.946571 24,000 276 417 64
2021-09-10 01:19:02 GMT 37.663925 -119.925980 24,000 276 416 -64
2021-09-10 01:18:59 GMT 37.663651 -119.922379 24,000 276 415 -64
2021-09-10 01:18:53 GMT 37.662552 -119.907944 24,000 276 415 64
2021-09-10 01:18:49 GMT 37.661636 -119.896370 24,000 276 415 64
2021-09-10 01:18:43 GMT 37.660583 -119.882401 24,000 276 416 0
2021-09-10 01:18:39 GMT 37.659737 -119.872002 24,000 276 417 -64
2021-09-10 01:18:31 GMT 37.658157 -119.851959 24,000 276 418 -128
2021-09-10 01:18:28 GMT 37.657597 -119.845436 24,000 276 419 -64
2021-09-10 01:18:24 GMT 37.656944 -119.837196 24,000 276 421 0
2021-09-10 01:18:20 GMT 37.656059 -119.825974 24,000 276 421 0
2021-09-10 01:18:17 GMT 37.655594 -119.820122 24,000 276 422 0
2021-09-10 01:18:11 GMT 37.654198 -119.802979 24,000 276 424 0
2021-09-10 01:18:07 GMT 37.653580 -119.795334 24,000 276 425 0
2021-09-10 01:18:00 GMT 37.652023 -119.775581 24,000 276 427 64
2021-09-10 01:17:57 GMT 37.651543 -119.769363 24,000 276 427 64
2021-09-10 01:17:49 GMT 37.650101 -119.751038 24,000 276 427 -128
2021-09-10 01:17:46 GMT 37.649506 -119.743378 24,000 276 427 -128
2021-09-10 01:17:38 GMT 37.647678 -119.720406 24,000 276 426 0
2021-09-10 01:17:35 GMT 37.647354 -119.716675 24,000 276 426 0
2021-09-10 01:17:28 GMT 37.645798 -119.696983 24,000 276 425 64
2021-09-10 01:17:24 GMT 37.645260 -119.690315 24,000 276 425 64
2021-09-10 01:17:17 GMT 37.643784 -119.671791 24,000 276 425 0
2021-09-10 01:17:14 GMT 37.642979 -119.661713 24,000 276 425 0
2021-09-10 01:17:07 GMT 37.641766 -119.646904 24,000 276 425 0
2021-09-10 01:17:04 GMT 37.640976 -119.637054 24,000 276 425 -64
2021-09-10 01:16:58 GMT 37.639709 -119.621536 24,000 276 425 0
2021-09-10 01:16:53 GMT 37.638927 -119.611977 24,000 276 425 0
2021-09-10 01:16:47 GMT 37.637718 -119.597168 24,000 276 425 0
2021-09-10 01:16:42 GMT 37.636780 -119.585655 24,000 276 424 -64
2021-09-10 01:16:35 GMT 37.635452 -119.568420 24,000 276 423 0
2021-09-10 01:16:31 GMT 37.634457 -119.555908 24,000 276 423 0
2021-09-10 01:16:23 GMT 37.633072 -119.538551 24,000 276 423 -64
2021-09-10 01:16:21 GMT 37.631664 -119.521217 24,025 276 421 0
2021-09-10 01:16:16 GMT 37.631664 -119.521217 24,000 276 421 0
2021-09-10 01:16:10 GMT 37.630547 -119.507065 24,000 276 420 -64
2021-09-10 01:16:06 GMT 37.629730 -119.496658 24,025 276 419 -64
2021-09-10 01:16:00 GMT 37.628685 -119.483780 24,025 276 418 0
2021-09-10 01:15:56 GMT 37.627670 -119.470940 24,025 276 417 128
2021-09-10 01:15:53 GMT 37.627102 -119.463959 24,000 276 417 128
2021-09-10 01:15:49 GMT 37.626022 -119.450661 24,000 276 416 0
2021-09-10 01:15:45 GMT 37.625656 -119.445869 24,000 276 416 -64
2021-09-10 01:15:39 GMT 37.624496 -119.431656 24,000 277 415 64
2021-09-10 01:15:35 GMT 37.623688 -119.421799 24,000 277 414 64
2021-09-10 01:15:29 GMT 37.622406 -119.406891 24,000 277 414 0
2021-09-10 01:15:21 GMT 37.620850 -119.388718 24,000 276 413 64
2021-09-10 01:15:14 GMT 37.619514 -119.372246 24,000 277 412 -128
2021-09-10 01:15:11 GMT 37.618835 -119.363884 24,000 277 411 -128
2021-09-10 01:15:04 GMT 37.617420 -119.347466 24,000 276 411 128
2021-09-10 01:15:01 GMT 37.616814 -119.339882 24,000 276 411 128
2021-09-10 01:14:54 GMT 37.615463 -119.322746 24,000 276 409 -64
2021-09-10 01:14:45 GMT 37.613930 -119.303818 24,000 276 407 64
2021-09-10 01:14:40 GMT 37.612885 -119.291359 24,000 276 406 0
2021-09-10 01:14:29 GMT 37.610764 -119.265015 24,025 276 402 -64
2021-09-10 01:14:22 GMT 37.609322 -119.247459 24,025 276 397 64
2021-09-10 01:14:14 GMT 37.608078 -119.232109 24,000 276 392 192
2021-09-10 01:14:12 GMT 37.607643 -119.226440 24,000 276 392 192
2021-09-10 01:14:01 GMT 37.605698 -119.203117 24,000 276 388 -128
2021-09-10 01:13:52 GMT 37.603821 -119.179451 24,025 276 381 -128
2021-09-10 01:13:47 GMT 37.603222 -119.171745 24,025 276 377 0
2021-09-10 01:13:39 GMT 37.601639 -119.151688 24,025 276 372 128
2021-09-10 01:13:30 GMT 37.600288 -119.135384 24,025 276 367 64
2021-09-10 01:13:27 GMT 37.599655 -119.127502 24,025 276 363 128
2021-09-10 01:13:21 GMT 37.598381 -119.112518 24,000 277 364 128
2021-09-10 01:13:14 GMT 37.597321 -119.100098 23,975 277 364 128
2021-09-10 01:13:10 GMT 37.596611 -119.091858 24,000 277 365 -64
2021-09-10 01:13:06 GMT 37.595913 -119.083794 24,000 277 365 0
2021-09-10 01:12:59 GMT 37.594608 -119.068626 24,000 277 366 0
2021-09-10 01:12:50 GMT 37.592701 -119.046600 24,000 277 366 -128
2021-09-10 01:12:38 GMT 37.590866 -119.024773 24,000 276 365 0
2021-09-10 01:12:28 GMT 37.589115 -119.003845 24,000 276 365 64
2021-09-10 01:12:18 GMT 37.587162 -118.980141 24,000 277 366 -128
2021-09-10 01:12:07 GMT 37.585373 -118.958794 24,025 276 364 0
2021-09-10 01:11:57 GMT 37.583576 -118.937508 24,000 277 364 0
2021-09-10 01:11:47 GMT 37.581573 -118.914085 24,025 277 364 0
2021-09-10 01:11:37 GMT 37.579899 -118.895355 24,000 277 364 64
2021-09-10 01:11:29 GMT 37.578232 -118.877098 24,000 277 364 0
2021-09-10 01:11:26 GMT 37.577805 -118.872246 24,000 277 363 -64
2021-09-10 01:11:23 GMT 37.577339 -118.867172 24,000 277 363 -64
2021-09-10 01:11:17 GMT 37.576080 -118.851646 24,000 276 362 -64
2021-09-10 01:11:06 GMT 37.574314 -118.829857 23,975 277 362 128
2021-09-10 01:10:56 GMT 37.572357 -118.808006 23,975 277 363 -128
2021-09-10 01:10:46 GMT 37.570404 -118.786400 24,000 277 363 -128
2021-09-10 01:10:35 GMT 37.568493 -118.764359 24,000 277 362 -128
2021-09-10 01:10:24 GMT 37.566467 -118.741989 24,025 277 361 64
2021-09-10 01:10:15 GMT 37.564545 -118.722000 24,000 277 360 0
2021-09-10 01:10:04 GMT 37.562576 -118.699913 24,000 277 360 64
2021-09-10 01:09:53 GMT 37.560581 -118.678558 24,000 277 359 64
2021-09-10 01:09:42 GMT 37.558456 -118.655907 24,000 277 359 64
2021-09-10 01:09:33 GMT 37.556622 -118.635742 24,000 277 359 -64
2021-09-10 01:09:12 GMT 37.552597 -118.590630 24,000 277 360 64
2021-09-10 01:09:00 GMT 37.550583 -118.567665 24,000 277 361 -128
2021-09-10 01:08:47 GMT 37.548157 -118.540199 24,000 277 360 64
2021-09-10 01:08:41 GMT 37.547058 -118.527756 24,000 277 357 128
2021-09-10 01:08:31 GMT 37.545181 -118.506775 24,000 277 354 0
2021-09-10 01:08:21 GMT 37.543350 -118.486320 24,000 277 351 -64
2021-09-10 01:08:10 GMT 37.541401 -118.464684 24,000 277 349 -64
2021-09-10 01:08:00 GMT 37.539631 -118.444496 24,000 277 350 128
2021-09-10 01:07:49 GMT 37.537678 -118.422585 24,000 277 352 0
2021-09-10 01:07:39 GMT 37.535862 -118.402283 24,000 277 352 -64
2021-09-10 01:07:29 GMT 37.533920 -118.381248 24,000 277 354 0
2021-09-10 01:07:18 GMT 37.531998 -118.358940 24,000 276 354 0
2021-09-10 01:05:23 GMT 37.509445 -118.114723 24,000 276 363
2021-09-10 01:05:15 GMT 37.507221 -118.088608 24,000 276 362
2021-09-10 01:04:22 GMT 37.495556 -117.963333 24,000 276 358
We lost coverage of the aircraft here for a total of 6 minutes
2021-09-10 00:58:30 GMT 37.396622 -117.258095 24,000 296 378 -128
2021-09-10 00:58:23 GMT 37.391235 -117.244049 24,000 296 377 0
2021-09-10 00:58:13 GMT 37.382610 -117.221733 24,000 296 378 -64
2021-09-10 00:57:51 GMT 37.366333 -117.179474 24,000 296 381 -64
2021-09-10 00:57:02 GMT 37.329575 -117.083580 24,025 296 385 -256
2021-09-10 00:56:41 GMT 37.312912 -117.039223 24,000 296 387 -64
2021-09-10 00:56:37 GMT 37.308964 -117.028816 24,000 296 387 -64
2021-09-10 00:56:27 GMT 37.301331 -117.008636 24,000 296 384 128
2021-09-10 00:54:29 GMT 37.207260 -116.777420 24,025 309 393 -64
2021-09-10 00:54:23 GMT 37.200825 -116.767296 24,025 309 392 -128
2021-09-10 00:54:12 GMT 37.186569 -116.744759 24,000 309 390 128
2021-09-10 00:54:05 GMT 37.180756 -116.735519 24,000 309 389 -64
2021-09-10 00:53:50 GMT 37.162373 -116.706871 24,000 309 389 -64
2021-09-10 00:53:42 GMT 37.153473 -116.693153 24,000 309 386 -64
2021-09-10 00:53:35 GMT 37.146824 -116.682861 24,000 310 380 -128
2021-09-10 00:53:25 GMT 37.134209 -116.663635 24,025 310 380 -128
2021-09-10 00:51:39 GMT 37.017151 -116.481728 24,000 309 381 64
2021-09-10 00:50:43 GMT 36.954620 -116.385651 24,000 309 385 64
2021-09-10 00:50:35 GMT 36.945766 -116.371902 24,000 309 386 -64
2021-09-10 00:50:23 GMT 36.933895 -116.353394 24,000 309 389 -128
2021-09-10 00:50:11 GMT 36.918671 -116.329391 24,000 308 391 64
2021-09-10 00:49:58 GMT 36.906281 -116.309570 24,000 308 394 0
2021-09-10 00:49:33 GMT 36.876774 -116.261925 24,000 308 392 64
2021-09-10 00:49:29 GMT 36.873596 -116.256737 24,000 308 391 256
2021-09-10 00:49:19 GMT 36.862885 -116.239151 23,975 307 390 -192
2021-09-10 00:49:11 GMT 36.852905 -116.222610 24,000 308 389 0
2021-09-10 00:48:53 GMT 36.834553 -116.192986 24,000 308 389 0
2021-09-10 00:48:48 GMT 36.827087 -116.182304 24,000 314 390 0
2021-09-10 00:48:39 GMT 36.815460 -116.167488 24,000 316 392 64
2021-09-10 00:48:28 GMT 36.802105 -116.151199 24,000 317 391 0
2021-09-10 00:48:21 GMT 36.791931 -116.139221 24,000 319 392 0
2021-09-10 00:48:06 GMT 36.772732 -116.119530 24,000 324 393 64
2021-09-10 00:47:59 GMT 36.761444 -116.109123 24,000 324 393 0
2021-09-10 00:47:54 GMT 36.755035 -116.103172 24,000 324 394 -64
2021-09-10 00:47:46 GMT 36.741577 -116.090637 24,000 323 394 64
2021-09-10 00:47:37 GMT 36.728714 -116.078629 24,000 323 395 0
2021-09-10 00:47:27 GMT 36.715897 -116.066551 24,000 323 394 64
2021-09-10 00:47:17 GMT 36.699509 -116.051270 24,000 324 394 0
2021-09-10 00:47:13 GMT 36.695709 -116.047783 24,000 324 394 0
2021-09-10 00:47:07 GMT 36.685818 -116.038826 24,000 325 394 -64
2021-09-10 00:47:03 GMT 36.679531 -116.033333 24,000 327 394 0
2021-09-10 00:46:56 GMT 36.668594 -116.024277 24,000 327 393 -64
2021-09-10 00:46:53 GMT 36.663574 -116.020203 24,000 328 394 -64
2021-09-10 00:46:45 GMT 36.652679 -116.011909 24,000 331 394 -128
2021-09-10 00:46:35 GMT 36.634422 -116.000137 24,025 336 393 0
2021-09-10 00:46:30 GMT 36.626137 -115.995461 24,025 338 391 192
2021-09-10 00:46:26 GMT 36.620636 -115.992508 24,000 338 392 192
2021-09-10 00:46:21 GMT 36.611572 -115.987869 24,000 341 390 192
2021-09-10 00:46:15 GMT 36.601185 -115.983192 23,975 342 390 64
2021-09-10 00:46:09 GMT 36.592991 -115.979744 23,975 342 389 0
2021-09-10 00:46:05 GMT 36.583878 -115.976028 23,975 342 390 -64
2021-09-10 00:45:59 GMT 36.573765 -115.971916 24,000 343 390 -192
2021-09-10 00:45:54 GMT 36.564453 -115.968170 24,000 343 390 -192
2021-09-10 00:45:45 GMT 36.549362 -115.962410 24,025 345 391 -128
2021-09-10 00:45:42 GMT 36.545368 -115.961044 24,025 346 391 -64
2021-09-10 00:45:33 GMT 36.529030 -115.956955 24,025 353 390 192
2021-09-10 00:45:21 GMT 36.508392 -115.954742 23,975 357 388 128
2021-09-10 00:45:15 GMT 36.497791 -115.953972 23,975 357 388 -64
2021-09-10 00:45:12 GMT 36.490578 -115.953392 23,975 357 388 -64
2021-09-10 00:45:05 GMT 36.478180 -115.952393 24,000 356 389 -128
2021-09-10 00:45:01 GMT 36.472046 -115.951820 24,000 356 389 -64
2021-09-10 00:44:55 GMT 36.459293 -115.950409 24,000 354 390 -64
2021-09-10 00:44:50 GMT 36.450897 -115.949020 24,000 351 390 -64
2021-09-10 00:44:44 GMT 36.441463 -115.946846 24,000 347 391 -64
2021-09-10 00:44:34 GMT 36.422981 -115.940353 24,025 342 390 -64
2021-09-10 00:44:29 GMT 36.414417 -115.936790 24,025 342 390 -64
2021-09-10 00:44:19 GMT 36.398823 -115.929665 24,025 335 389 -128
2021-09-10 00:44:11 GMT 36.384293 -115.919495 24,025 323 387 128
2021-09-10 00:44:06 GMT 36.379807 -115.915031 24,025 319 387 192
2021-09-10 00:43:58 GMT 36.369736 -115.901932 24,000 306 383 -128
2021-09-10 00:43:51 GMT 36.362869 -115.889221 24,000 301 379 64
2021-09-10 00:43:47 GMT 36.359116 -115.881332 24,000 301 377 64
2021-09-10 00:43:40 GMT 36.353481 -115.869240 24,000 300 373 0
2021-09-10 00:43:36 GMT 36.349640 -115.860847 24,000 299 371 64
2021-09-10 00:43:29 GMT 36.343048 -115.845909 23,975 299 374 64
2021-09-10 00:43:26 GMT 36.341469 -115.842300 23,975 298 376 64
2021-09-10 00:43:20 GMT 36.336548 -115.830688 23,975 298 378 0
2021-09-10 00:43:16 GMT 36.333344 -115.822968 23,975 297 380 -64
2021-09-10 00:43:07 GMT 36.325130 -115.802269 24,000 296 386 -64
2021-09-10 00:43:04 GMT 36.323959 -115.799271 24,000 296 388 -64
2021-09-10 00:42:59 GMT 36.320522 -115.790115 24,000 295 394 -64
2021-09-10 00:42:55 GMT 36.317078 -115.780708 24,000 296 397 0
2021-09-10 00:42:47 GMT 36.309952 -115.763969 24,000 304 403 -128
2021-09-10 00:42:44 GMT 36.307999 -115.760307 24,000 308 406 -128
2021-09-10 00:42:36 GMT 36.297665 -115.744881 24,025 315 411 0
2021-09-10 00:42:33 GMT 36.293102 -115.739159 24,025 315 412 -64
2021-09-10 00:42:27 GMT 36.284397 -115.728462 24,000 316 417 128
2021-09-10 00:42:24 GMT 36.280701 -115.723915 24,000 316 417 128
2021-09-10 00:42:16 GMT 36.268341 -115.708755 24,000 316 417 -64
2021-09-10 00:42:12 GMT 36.265320 -115.705032 24,000 316 417 -128
2021-09-10 00:42:07 GMT 36.256187 -115.693748 24,000 315 417 -64
2021-09-10 00:42:02 GMT 36.250973 -115.687325 24,025 315 418 -192
2021-09-10 00:41:57 GMT 36.243572 -115.678085 24,025 315 422 -128
2021-09-10 00:41:54 GMT 36.239319 -115.672760 24,050 315 425 -192
2021-09-10 00:41:51 GMT 36.235283 -115.667747 24,050 315 427 -320
2021-09-10 00:41:44 GMT 36.225834 -115.655823 24,150 315 432 -1152
2021-09-10 00:41:40 GMT 36.220047 -115.648613 24,225 315 433 -1472
2021-09-10 00:41:36 GMT 36.214417 -115.641579 24,350 315 434 -2240
2021-09-10 00:41:32 GMT 36.208050 -115.633614 24,525 315 434 -2368
2021-09-10 00:41:26 GMT 36.200371 -115.624092 24,800 315 433 -2560
2021-09-10 00:41:23 GMT 36.195854 -115.618484 24,850 315 433 -2496
2021-09-10 00:41:20 GMT 36.193016 -115.614975 24,925 315 434 -2496
2021-09-10 00:41:14 GMT 36.183331 -115.602997 25,275 315 439 -2624
2021-09-10 00:41:11 GMT 36.178490 -115.596916 25,350 315 439 -2752
2021-09-10 00:41:07 GMT 36.172668 -115.589561 25,525 315 441 -2816
2021-09-10 00:41:03 GMT 36.167412 -115.582832 25,675 314 442 -2816
2021-09-10 00:41:00 GMT 36.163452 -115.577690 25,800 313 443 -2752
2021-09-10 00:40:55 GMT 36.155773 -115.567116 26,050 310 444 -2816
2021-09-10 00:40:52 GMT 36.152096 -115.561676 26,175 309 445 -2816
2021-09-10 00:40:46 GMT 36.144276 -115.549232 26,450 307 445 -2752
2021-09-10 00:40:43 GMT 36.140831 -115.543449 26,575 306 446 -2752
2021-09-10 00:40:38 GMT 36.135986 -115.535210 26,750 306 446 -2752
2021-09-10 00:40:34 GMT 36.129936 -115.524925 26,950 306 447 -2752
2021-09-10 00:40:29 GMT 36.123688 -115.514374 27,175 307 448 -2496
2021-09-10 00:40:23 GMT 36.117229 -115.503357 27,425 307 450 -2368
2021-09-10 00:40:20 GMT 36.113388 -115.496925 27,475 307 451 -2304
2021-09-10 00:40:15 GMT 36.106522 -115.485252 27,675 306 451 -2176
2021-09-10 00:40:11 GMT 36.102356 -115.478149 27,800 306 451 -1920
2021-09-10 00:40:08 GMT 36.097961 -115.470596 27,900 306 451 -1664
2021-09-10 00:40:04 GMT 36.094231 -115.464149 27,975 306 451 -960
2021-09-10 00:40:01 GMT 36.089390 -115.455673 28,000 305 451 -576
2021-09-10 00:39:54 GMT 36.081070 -115.440559 28,000 303 450 0
2021-09-10 00:39:51 GMT 36.079380 -115.437325 28,000 303 450 0
2021-09-10 00:39:47 GMT 36.073196 -115.424828 28,000 301 449 -64
2021-09-10 00:39:42 GMT 36.068344 -115.414642 28,025 301 450 -64
2021-09-10 00:39:39 GMT 36.065186 -115.408058 28,025 301 450 -128
2021-09-10 00:39:33 GMT 36.059132 -115.395424 28,050 301 451 -576
2021-09-10 00:39:29 GMT 36.055080 -115.387009 28,125 301 452 -1152
2021-09-10 00:39:25 GMT 36.050892 -115.378128 28,200 300 452 -1408
2021-09-10 00:39:21 GMT 36.046234 -115.368004 28,300 299 451 -1600
2021-09-10 00:39:18 GMT 36.042606 -115.359604 28,400 296 451 -1600
2021-09-10 00:39:14 GMT 36.040836 -115.354927 28,450 294 451 -1664
2021-09-10 00:39:08 GMT 36.035889 -115.338303 28,675 284 448 -1664
2021-09-10 00:39:04 GMT 36.033829 -115.327377 28,750 280 447 -1600
2021-09-10 00:39:00 GMT 36.032738 -115.317055 28,850 275 445 -1664
2021-09-10 00:38:57 GMT 36.032410 -115.307945 28,950 271 445 -1664
2021-09-10 00:38:53 GMT 36.032551 -115.301338 29,025 267 443 -1664
2021-09-10 00:38:47 GMT 36.033920 -115.286522 29,175 261 442 -1728
2021-09-10 00:38:44 GMT 36.035576 -115.276382 29,375 258 443 -1664
2021-09-10 00:38:41 GMT 36.036694 -115.269958 29,350 258 443 -1664
2021-09-10 00:38:36 GMT 36.039112 -115.256630 29,500 258 444 -1600
2021-09-10 00:38:29 GMT 36.041428 -115.243546 29,625 258 445 -1600
2021-09-10 00:38:26 GMT 36.043163 -115.233841 29,725 258 445 -1536
2021-09-10 00:38:23 GMT 36.044907 -115.224213 29,825 258 445 -1408
2021-09-10 00:38:19 GMT 36.046700 -115.214035 29,900 258 446 -1280
2021-09-10 00:38:15 GMT 36.048569 -115.203835 29,975 258 446 -960
2021-09-10 00:38:08 GMT 36.051823 -115.186218 30,000 258 445 -128
2021-09-10 00:38:05 GMT 36.052662 -115.181770 30,000 258 445 -64
2021-09-10 00:38:02 GMT 36.054245 -115.173111 30,000 258 445 -64
2021-09-10 00:37:58 GMT 36.055481 -115.166702 30,000 258 445 -64
2021-09-10 00:37:54 GMT 36.057770 -115.154343 30,000 258 445 0
2021-09-10 00:37:47 GMT 36.061203 -115.135513 30,000 258 445 128
2021-09-10 00:37:41 GMT 36.063972 -115.120354 30,000 258 445 128
2021-09-10 00:37:38 GMT 36.064995 -115.114922 29,975 258 445 64
2021-09-10 00:37:34 GMT 36.066952 -115.103996 30,000 258 446 0
2021-09-10 00:37:29 GMT 36.068665 -115.094833 30,000 258 446 -64
2021-09-10 00:37:26 GMT 36.070724 -115.083389 30,000 258 446 0
2021-09-10 00:37:23 GMT 36.072212 -115.075188 30,000 258 446 -64
2021-09-10 00:37:19 GMT 36.073517 -115.067482 30,000 259 447 -64
2021-09-10 00:37:15 GMT 36.074959 -115.058235 30,000 261 447 0
2021-09-10 00:37:10 GMT 36.076679 -115.045616 30,000 262 448 0
2021-09-10 00:37:07 GMT 36.077637 -115.036758 30,000 264 448 0
2021-09-10 00:37:02 GMT 36.078827 -115.023026 30,000 266 448 0
2021-09-10 00:36:54 GMT 36.079880 -115.004143 30,000 267 449 -64
2021-09-10 00:36:50 GMT 36.080265 -114.995651 30,000 267 449 -128
2021-09-10 00:36:45 GMT 36.080872 -114.982849 30,000 267 449 0
2021-09-10 00:36:41 GMT 36.081474 -114.970116 30,000 267 449 0
2021-09-10 00:36:38 GMT 36.081894 -114.961349 30,000 267 449 0
2021-09-10 00:36:35 GMT 36.082123 -114.956535 30,000 267 449 0
2021-09-10 00:36:31 GMT 36.082687 -114.944458 30,000 267 450 64
2021-09-10 00:36:27 GMT 36.083084 -114.935471 30,000 267 450 64
2021-09-10 00:36:24 GMT 36.083431 -114.928566 30,000 267 450 0
2021-09-10 00:36:20 GMT 36.083942 -114.917282 30,000 267 450 -64
2021-09-10 00:36:13 GMT 36.084824 -114.897995 30,000 267 451 0
2021-09-10 00:36:10 GMT 36.085247 -114.889000 30,000 267 451 0
2021-09-10 00:36:05 GMT 36.085556 -114.881058 30,000 268 451 64
2021-09-10 00:36:01 GMT 36.086037 -114.869484 30,000 268 451 0
2021-09-10 00:35:58 GMT 36.086315 -114.862823 30,000 268 451 128
2021-09-10 00:35:52 GMT 36.087021 -114.844032 30,000 268 451 64
2021-09-10 00:35:49 GMT 36.087341 -114.836060 30,000 268 451 -128
2021-09-10 00:35:41 GMT 36.088039 -114.817528 30,000 268 451 -64
2021-09-10 00:35:38 GMT 36.088348 -114.809013 30,000 268 451 -64
2021-09-10 00:35:31 GMT 36.089081 -114.789963 30,000 268 451 -64
2021-09-10 00:35:28 GMT 36.089355 -114.781723 30,000 268 451 -64
2021-09-10 00:35:22 GMT 36.089859 -114.767876 30,025 268 451 0
2021-09-10 00:35:19 GMT 36.090088 -114.762215 30,000 268 451 0
2021-09-10 00:35:16 GMT 36.090366 -114.754242 30,025 268 451 -64
2021-09-10 00:35:11 GMT 36.090775 -114.741096 30,025 268 451 0
2021-09-10 00:35:07 GMT 36.091206 -114.726952 30,000 268 451 64
2021-09-10 00:34:59 GMT 36.091736 -114.709229 30,000 268 451 64
2021-09-10 00:34:55 GMT 36.091965 -114.700470 30,000 268 451 64
2021-09-10 00:34:50 GMT 36.092369 -114.686340 30,000 269 452 64
2021-09-10 00:34:46 GMT 36.092739 -114.672958 30,000 269 452 0
2021-09-10 00:34:39 GMT 36.093159 -114.655952 30,000 269 452 -128
2021-09-10 00:34:34 GMT 36.093346 -114.646660 30,000 269 452 -128
2021-09-10 00:34:28 GMT 36.093441 -114.630646 30,025 272 453 0
2021-09-10 00:34:25 GMT 36.093063 -114.618988 30,025 276 454 64
2021-09-10 00:34:18 GMT 36.091141 -114.601479 30,000 283 458 128
2021-09-10 00:34:13 GMT 36.089390 -114.592018 30,000 286 460 128
2021-09-10 00:34:07 GMT 36.085014 -114.575478 30,000 292 464 0
2021-09-10 00:34:04 GMT 36.082077 -114.566399 30,000 293 464 0
2021-09-10 00:33:57 GMT 36.076584 -114.550323 30,000 293 463 -64
2021-09-10 00:33:53 GMT 36.073563 -114.541237 30,000 293 463 -64
2021-09-10 00:33:46 GMT 36.067978 -114.524643 30,000 293 463 0
2021-09-10 00:33:43 GMT 36.064812 -114.515404 30,000 294 464 64
2021-09-10 00:33:35 GMT 36.058685 -114.498199 30,000 296 464 64
2021-09-10 00:33:31 GMT 36.055454 -114.489815 30,000 296 465 0
2021-09-10 00:33:25 GMT 36.049484 -114.474220 29,975 294 464 64
2021-09-10 00:33:22 GMT 36.046329 -114.465210 29,975 293 464 -64
2021-09-10 00:33:14 GMT 36.040649 -114.448669 30,000 293 464 -64
2021-09-10 00:33:10 GMT 36.036804 -114.437141 30,000 293 464 -128
2021-09-10 00:33:05 GMT 36.032410 -114.423134 30,000 289 461 0
2021-09-10 00:33:01 GMT 36.029709 -114.413139 30,000 286 461 0
2021-09-10 00:32:54 GMT 36.026310 -114.396896 30,000 281 458 0
2021-09-10 00:32:50 GMT 36.024353 -114.382729 30,000 278 457 128
2021-09-10 00:32:44 GMT 36.023052 -114.370010 30,000 277 457 0
2021-09-10 00:32:37 GMT 36.021561 -114.354744 30,000 278 457 -128
2021-09-10 00:32:32 GMT 36.020050 -114.340263 30,025 279 457 -256
2021-09-10 00:32:28 GMT 36.018444 -114.328110 30,025 282 459 -64
2021-09-10 00:32:23 GMT 36.015930 -114.314323 30,025 287 462 192
2021-09-10 00:32:16 GMT 36.012268 -114.301071 30,000 294 466 128
2021-09-10 00:32:12 GMT 36.008156 -114.289955 30,000 299 468 64
2021-09-10 00:32:07 GMT 36.001328 -114.275665 30,000 306 472 64
2021-09-10 00:32:02 GMT 35.994610 -114.264709 30,000 311 473 0
2021-09-10 00:31:55 GMT 35.985950 -114.253136 30,000 316 475 0
2021-09-10 00:31:51 GMT 35.979946 -114.246010 30,000 317 476 0
2021-09-10 00:31:46 GMT 35.970680 -114.235199 30,000 317 476 0
2021-09-10 00:31:43 GMT 35.966820 -114.230698 30,000 317 476 0
2021-09-10 00:31:40 GMT 35.962673 -114.225845 30,000 317 476 64
2021-09-10 00:31:32 GMT 35.950199 -114.211296 30,000 317 476 0
2021-09-10 00:31:29 GMT 35.945526 -114.205917 30,000 317 476 -128
2021-09-10 00:31:25 GMT 35.936699 -114.195694 30,000 317 476 -64
2021-09-10 00:31:20 GMT 35.929825 -114.187714 30,000 317 475 -64
2021-09-10 00:31:13 GMT 35.920166 -114.176620 30,000 317 475 -64
2021-09-10 00:31:10 GMT 35.912521 -114.167686 30,000 317 474 -64
2021-09-10 00:31:01 GMT 35.899551 -114.152679 30,000 317 473 0
2021-09-10 00:30:58 GMT 35.894943 -114.147324 30,000 317 473 64
2021-09-10 00:30:52 GMT 35.886189 -114.137138 30,000 317 473 64
2021-09-10 00:30:49 GMT 35.879532 -114.129364 30,000 317 473 128
2021-09-10 00:30:43 GMT 35.869709 -114.117851 30,000 317 473 0
2021-09-10 00:30:35 GMT 35.858734 -114.105087 30,000 317 472 -64
2021-09-10 00:30:32 GMT 35.853508 -114.098976 30,000 317 472 -64
2021-09-10 00:30:28 GMT 35.846054 -114.090324 30,000 317 471 -64
2021-09-10 00:30:24 GMT 35.842106 -114.085716 30,000 317 471 -64
2021-09-10 00:30:21 GMT 35.835445 -114.077942 30,000 317 471 0
2021-09-10 00:30:17 GMT 35.829720 -114.071335 30,000 317 471 64
2021-09-10 00:30:14 GMT 35.825298 -114.066193 30,000 317 470 0
2021-09-10 00:30:10 GMT 35.819412 -114.059425 30,000 317 470 -64
2021-09-10 00:30:06 GMT 35.812775 -114.051704 30,025 317 469 -128
2021-09-10 00:30:01 GMT 35.802933 -114.040375 30,025 317 469 128
2021-09-10 00:29:56 GMT 35.796616 -114.033051 30,000 317 469 192
2021-09-10 00:29:50 GMT 35.786659 -114.021545 30,000 317 469 -64
2021-09-10 00:29:46 GMT 35.780457 -114.014458 30,000 317 469 -128
2021-09-10 00:29:42 GMT 35.775421 -114.008614 30,025 317 468 -64
2021-09-10 00:29:39 GMT 35.769855 -114.002266 30,000 317 468 0
2021-09-10 00:29:35 GMT 35.762592 -113.993904 30,025 317 468 -64
2021-09-10 00:29:32 GMT 35.759754 -113.990631 30,025 317 467 0
2021-09-10 00:29:27 GMT 35.749931 -113.979355 30,000 317 467 128
2021-09-10 00:29:22 GMT 35.742992 -113.971352 30,000 317 466 64
2021-09-10 00:29:17 GMT 35.735779 -113.962990 30,000 317 466 64
2021-09-10 00:29:14 GMT 35.729820 -113.956100 30,000 317 466 64
2021-09-10 00:29:11 GMT 35.726486 -113.952255 30,000 317 466 0
2021-09-10 00:29:08 GMT 35.720535 -113.945335 30,000 317 466 0
2021-09-10 00:29:04 GMT 35.713348 -113.936920 30,000 317 466 0
2021-09-10 00:29:01 GMT 35.710190 -113.933311 30,000 317 466 64
2021-09-10 00:28:57 GMT 35.703472 -113.925476 30,000 317 466 0
2021-09-10 00:28:54 GMT 35.697514 -113.918526 30,000 317 466 0
2021-09-10 00:28:50 GMT 35.693619 -113.913979 30,000 317 466 -64
2021-09-10 00:28:45 GMT 35.683781 -113.902451 30,000 317 466 -256
2021-09-10 00:28:40 GMT 35.677368 -113.894981 30,075 317 466 -256
2021-09-10 00:28:35 GMT 35.670048 -113.886383 30,075 317 466 -576
2021-09-10 00:28:32 GMT 35.665512 -113.881073 30,075 317 466 -448
2021-09-10 00:28:29 GMT 35.660797 -113.875633 30,200 317 466 -704
2021-09-10 00:28:26 GMT 35.654686 -113.868500 30,350 317 466 -1408
2021-09-10 00:28:21 GMT 35.648445 -113.861191 30,300 317 465 -1600
2021-09-10 00:28:17 GMT 35.641834 -113.853539 30,350 317 465 -1600
2021-09-10 00:28:14 GMT 35.635757 -113.846512 30,450 317 464 -1664
2021-09-10 00:28:10 GMT 35.629486 -113.839302 30,550 318 462 -1664
2021-09-10 00:28:05 GMT 35.621658 -113.830376 30,700 318 462 -1664
2021-09-10 00:28:02 GMT 35.616302 -113.824310 30,900 318 460 -1664
2021-09-10 00:27:59 GMT 35.613953 -113.821632 30,800 317 459 -1664
2021-09-10 00:27:53 GMT 35.603806 -113.810059 31,050 317 459 -1664
2021-09-10 00:27:49 GMT 35.596542 -113.801643 31,100 317 459 -1664
2021-09-10 00:27:46 GMT 35.591721 -113.796158 31,175 317 459 -1664
2021-09-10 00:27:41 GMT 35.584030 -113.787231 31,350 317 458 -1728
2021-09-10 00:27:38 GMT 35.580643 -113.783279 31,375 317 457 -1728
2021-09-10 00:27:32 GMT 35.571590 -113.772659 31,500 316 456 -1664
2021-09-10 00:27:29 GMT 35.567074 -113.767227 31,700 315 456 -1664
2021-09-10 00:27:26 GMT 35.560638 -113.759422 31,725 315 455 -1536
2021-09-10 00:27:23 GMT 35.552643 -113.749107 31,800 313 455 -1472
2021-09-10 00:27:20 GMT 35.552643 -113.749107 31,850 312 454 -1280
2021-09-10 00:27:17 GMT 35.549290 -113.744492 31,900 312 454 -1152
2021-09-10 00:27:12 GMT 35.537796 -113.728409 32,000 312 453 -832
2021-09-10 00:27:09 GMT 35.537796 -113.728409 32,025 311 452 64
2021-09-10 00:27:05 GMT 35.531368 -113.719307 32,025 311 452 128
2021-09-10 00:27:02 GMT 35.527782 -113.714279 32,000 311 451 128
2021-09-10 00:26:59 GMT 35.522617 -113.706863 32,000 311 451 128
2021-09-10 00:26:56 GMT 35.519760 -113.702774 32,000 311 452 128
2021-09-10 00:26:51 GMT 35.513214 -113.693184 32,000 309 451 64
2021-09-10 00:26:48 GMT 35.509918 -113.688187 31,975 309 451 64
2021-09-10 00:26:44 GMT 35.503624 -113.678284 32,000 307 451 -64
2021-09-10 00:26:39 GMT 35.498920 -113.670456 32,000 305 450 -192
2021-09-10 00:26:37 GMT 35.496643 -113.666496 32,025 304 449 -192
2021-09-10 00:26:29 GMT 35.487030 -113.648643 32,025 303 448 0
2021-09-10 00:26:26 GMT 35.484024 -113.642868 32,025 302 448 64
2021-09-10 00:26:23 GMT 35.479462 -113.633751 32,000 301 447 256
2021-09-10 00:26:20 GMT 35.476528 -113.627678 32,000 299 447 128
2021-09-10 00:26:16 GMT 35.473618 -113.621239 32,000 295 445 -64
2021-09-10 00:26:11 GMT 35.469128 -113.610146 32,000 295 445 -64
2021-09-10 00:26:07 GMT 35.464737 -113.597321 32,000 291 444 0
2021-09-10 00:26:02 GMT 35.461578 -113.586449 32,000 288 443 0
2021-09-10 00:25:57 GMT 35.459164 -113.576599 32,000 284 441 0
2021-09-10 00:25:55 GMT 35.458096 -113.571808 32,000 285 441 0
2021-09-10 00:25:49 GMT 35.454575 -113.554573 32,000 283 441 0
2021-09-10 00:25:46 GMT 35.453430 -113.548225 32,000 283 441 0
2021-09-10 00:25:44 GMT 35.452557 -113.543114 32,000 282 440 64
2021-09-10 00:25:41 GMT 35.451157 -113.534294 32,000 280 440 64
2021-09-10 00:25:36 GMT 35.449814 -113.524757 32,000 280 439 0
2021-09-10 00:25:32 GMT 35.448273 -113.512199 32,000 277 438 -64
2021-09-10 00:25:29 GMT 35.447800 -113.507538 32,000 277 438 -64
2021-09-10 00:25:25 GMT 35.446793 -113.494720 32,000 273 436 -64
2021-09-10 00:25:22 GMT 35.446564 -113.489288 32,000 272 436 0
2021-09-10 00:25:17 GMT 35.446564 -113.474976 32,000 268 435 0
2021-09-10 00:25:12 GMT 35.447201 -113.463463 32,000 264 432 0
2021-09-10 00:25:08 GMT 35.447807 -113.456100 32,000 263 433 0
2021-09-10 00:25:05 GMT 35.448551 -113.449326 32,000 263 433 0
2021-09-10 00:25:01 GMT 35.449669 -113.439156 32,000 263 433 0
2021-09-10 00:24:59 GMT 35.450500 -113.432121 32,000 263 433 -64
2021-09-10 00:24:56 GMT 35.451324 -113.424797 32,000 263 433 -64
2021-09-10 00:24:51 GMT 35.452789 -113.411980 32,025 263 433 -64
2021-09-10 00:24:45 GMT 35.454231 -113.399826 32,000 262 432 128
2021-09-10 00:24:42 GMT 35.455124 -113.392349 32,000 260 432 64
2021-09-10 00:24:38 GMT 35.456818 -113.380280 32,000 260 432 64
2021-09-10 00:24:33 GMT 35.458698 -113.369034 32,000 257 431 0
2021-09-10 00:24:30 GMT 35.459583 -113.364296 32,000 257 430 0
2021-09-10 00:24:27 GMT 35.461075 -113.356697 32,000 257 431 0
2021-09-10 00:24:23 GMT 35.462814 -113.347954 32,000 257 431 -64
2021-09-10 00:24:20 GMT 35.466007 -113.332039 32,000 257 431 0
2021-09-10 00:24:17 GMT 35.466007 -113.332039 32,000 257 431 0
2021-09-10 00:24:12 GMT 35.468582 -113.319054 32,000 257 430 0
2021-09-10 00:24:09 GMT 35.470963 -113.307205 32,000 257 430 0
2021-09-10 00:24:06 GMT 35.470963 -113.307205 32,000 257 430 0
2021-09-10 00:24:02 GMT 35.472713 -113.298439 32,000 257 430 -64
2021-09-10 00:23:58 GMT 35.474899 -113.287567 32,000 256 430 -64
2021-09-10 00:23:55 GMT 35.476913 -113.277908 32,000 255 430 64
2021-09-10 00:23:51 GMT 35.478882 -113.268990 32,000 255 429 0
2021-09-10 00:23:45 GMT 35.481606 -113.257004 32,000 255 429 128
2021-09-10 00:23:42 GMT 35.483093 -113.250458 32,000 255 429 128
2021-09-10 00:23:38 GMT 35.485233 -113.241112 32,000 255 430 64
2021-09-10 00:23:36 GMT 35.486027 -113.237839 32,000 255 430 0
2021-09-10 00:23:32 GMT 35.488728 -113.226151 32,000 255 429 -64
2021-09-10 00:23:29 GMT 35.490356 -113.219078 32,000 255 429 0
2021-09-10 00:23:24 GMT 35.492542 -113.209785 32,000 255 429 0
2021-09-10 00:23:21 GMT 35.494404 -113.201836 32,000 255 429 0
2021-09-10 00:23:17 GMT 35.496780 -113.191551 32,000 255 429 0
2021-09-10 00:23:14 GMT 35.498795 -113.182922 32,000 255 428 0
2021-09-10 00:23:11 GMT 35.500179 -113.177063 32,000 254 429 0
2021-09-10 00:23:08 GMT 35.501907 -113.169823 32,000 253 428 -64
2021-09-10 00:23:03 GMT 35.504601 -113.158943 32,000 253 428 -64
2021-09-10 00:23:00 GMT 35.506165 -113.152657 32,000 253 428 -64
2021-09-10 00:22:56 GMT 35.509209 -113.140892 32,000 253 428 0
2021-09-10 00:22:52 GMT 35.510788 -113.134628 32,000 253 427 64
2021-09-10 00:22:46 GMT 35.514725 -113.119354 32,000 253 427 0
2021-09-10 00:22:41 GMT 35.517471 -113.108711 32,000 253 427 -64
2021-09-10 00:22:38 GMT 35.519852 -113.099503 32,000 253 427 -64
2021-09-10 00:22:35 GMT 35.520905 -113.095322 32,000 253 426 0
2021-09-10 00:22:32 GMT 35.523193 -113.086571 32,000 253 427 0
2021-09-10 00:22:29 GMT 35.524433 -113.081688 32,000 253 427 0
2021-09-10 00:22:24 GMT 35.527313 -113.070435 32,000 253 426 0
2021-09-10 00:22:20 GMT 35.529922 -113.060249 32,000 253 426 0
2021-09-10 00:22:17 GMT 35.532253 -113.051247 32,000 253 426 0
2021-09-10 00:22:08 GMT 35.537521 -113.030724 32,000 253 426 64
2021-09-10 00:22:05 GMT 35.538536 -113.026817 32,000 253 426 64
2021-09-10 00:22:00 GMT 35.541916 -113.013664 32,000 253 426 0
2021-09-10 00:21:56 GMT 35.544727 -113.002861 32,000 253 426 0
2021-09-10 00:21:50 GMT 35.547363 -112.992439 32,000 253 426 0
2021-09-10 00:21:47 GMT 35.549835 -112.982765 32,000 253 426 0
2021-09-10 00:21:44 GMT 35.551392 -112.976761 32,000 253 426 0
2021-09-10 00:21:39 GMT 35.554550 -112.964584 32,000 253 425 0
2021-09-10 00:21:35 GMT 35.557018 -112.954941 32,000 253 425 0
2021-09-10 00:21:29 GMT 35.560463 -112.941612 32,000 253 425 0
2021-09-10 00:21:24 GMT 35.563248 -112.930817 32,000 253 424 0
2021-09-10 00:21:21 GMT 35.565399 -112.922516 32,000 253 425 0
2021-09-10 00:21:19 GMT 35.566887 -112.916779 32,000 253 424 0
2021-09-10 00:21:13 GMT 35.569748 -112.905518 32,000 253 424 0
2021-09-10 00:21:09 GMT 35.572586 -112.894478 32,000 253 424 0
2021-09-10 00:21:04 GMT 35.575653 -112.882576 32,000 253 424 0
2021-09-10 00:20:58 GMT 35.579132 -112.869034 32,000 253 425 64
2021-09-10 00:20:55 GMT 35.580341 -112.864418 32,000 253 424 64
2021-09-10 00:20:52 GMT 35.581833 -112.858711 32,000 253 425 0
2021-09-10 00:20:49 GMT 35.583893 -112.850876 32,000 252 425 64
2021-09-10 00:20:46 GMT 35.585770 -112.844070 32,000 251 425 64
2021-09-10 00:20:43 GMT 35.588535 -112.834267 32,000 251 424 0
2021-09-10 00:20:35 GMT 35.593048 -112.818893 32,000 250 424 -64
2021-09-10 00:20:32 GMT 35.595238 -112.811646 32,000 250 423 0
2021-09-10 00:20:25 GMT 35.599823 -112.797089 32,000 249 423 0
2021-09-10 00:20:22 GMT 35.602707 -112.788162 32,000 249 423 64
2021-09-10 00:20:15 GMT 35.607834 -112.772598 32,000 247 423 0
2021-09-10 00:20:11 GMT 35.610645 -112.764374 32,000 247 422 0
2021-09-10 00:20:06 GMT 35.615250 -112.751945 32,000 244 421 0
2021-09-10 00:20:01 GMT 35.619350 -112.741936 32,000 243 421 0
2021-09-10 00:19:55 GMT 35.628616 -112.720314 32,000 243 422 -64
2021-09-10 00:19:50 GMT 35.628616 -112.720314 32,000 243 422 0
2021-09-10 00:19:43 GMT 35.634762 -112.705879 32,000 243 421 -64
2021-09-10 00:19:40 GMT 35.638577 -112.696938 32,000 243 421 -128
2021-09-10 00:19:32 GMT 35.644958 -112.681908 32,025 243 422 -64
2021-09-10 00:19:27 GMT 35.649193 -112.671921 32,025 243 421 0
2021-09-10 00:19:24 GMT 35.652824 -112.663391 32,000 243 421 64
2021-09-10 00:19:21 GMT 35.654079 -112.660469 32,000 243 421 64
2021-09-10 00:19:18 GMT 35.657478 -112.652405 32,000 243 421 192
2021-09-10 00:19:13 GMT 35.661392 -112.643227 32,000 243 422 128
2021-09-10 00:19:11 GMT 35.663811 -112.637505 32,000 243 422 64
2021-09-10 00:19:03 GMT 35.673248 -112.615128 32,000 243 423 -64
2021-09-10 00:18:55 GMT 35.677734 -112.604424 32,000 243 423 -64
2021-09-10 00:18:52 GMT 35.681488 -112.595444 32,000 243 423 0
2021-09-10 00:18:48 GMT 35.685104 -112.586922 32,000 243 424 0
2021-09-10 00:18:44 GMT 35.688622 -112.578598 32,000 243 424 0
2021-09-10 00:18:40 GMT 35.691605 -112.571587 32,000 243 424 0
2021-09-10 00:18:35 GMT 35.695885 -112.561592 32,000 243 424 -64
2021-09-10 00:18:29 GMT 35.701145 -112.549202 32,000 243 423 -64
2021-09-10 00:18:21 GMT 35.710548 -112.527115 32,000 243 422 -64
2021-09-10 00:18:13 GMT 35.715591 -112.515388 32,000 243 422 0
2021-09-10 00:18:10 GMT 35.719391 -112.506470 32,000 243 422 0
2021-09-10 00:18:06 GMT 35.723785 -112.496284 32,000 243 422 0
2021-09-10 00:17:58 GMT 35.729599 -112.482719 32,000 243 423 0
2021-09-10 00:17:55 GMT 35.732849 -112.475052 32,000 243 422 0
2021-09-10 00:17:47 GMT 35.739269 -112.459915 32,000 243 422 0
2021-09-10 00:17:44 GMT 35.742481 -112.452255 32,000 243 423 0
2021-09-10 00:17:37 GMT 35.748768 -112.437294 32,000 243 423 0
2021-09-10 00:17:35 GMT 35.751205 -112.431564 32,000 243 423 0
2021-09-10 00:17:26 GMT 35.758495 -112.414268 32,000 243 422 64
2021-09-10 00:17:24 GMT 35.760727 -112.408905 32,000 243 423 0
2021-09-10 00:17:16 GMT 35.767761 -112.392006 32,000 243 423 0
2021-09-10 00:17:12 GMT 35.771530 -112.383003 32,000 243 423 0
2021-09-10 00:17:08 GMT 35.775009 -112.374687 32,000 243 423 -128
2021-09-10 00:17:06 GMT 35.776325 -112.371498 32,000 243 423 -128
2021-09-10 00:17:02 GMT 35.779770 -112.363373 32,000 243 422 0
2021-09-10 00:16:56 GMT 35.786179 -112.348251 32,000 243 423 64
2021-09-10 00:16:53 GMT 35.789017 -112.341385 32,000 243 423 0
2021-09-10 00:16:45 GMT 35.795288 -112.326393 32,000 243 423 -64
2021-09-10 00:16:42 GMT 35.798065 -112.319778 32,000 243 423 -64
2021-09-10 00:16:36 GMT 35.803391 -112.307167 32,000 243 423 64
2021-09-10 00:16:32 GMT 35.807510 -112.297325 32,000 243 423 64
2021-09-10 00:16:24 GMT 35.813782 -112.282333 32,000 243 423 64
2021-09-10 00:16:21 GMT 35.816849 -112.275063 32,000 243 423 0
2021-09-10 00:16:16 GMT 35.821995 -112.262856 32,000 243 424 0
2021-09-10 00:16:13 GMT 35.824135 -112.257713 32,000 243 424 -64
2021-09-10 00:16:10 GMT 35.826324 -112.252571 32,000 243 424 -64
2021-09-10 00:16:05 GMT 35.832870 -112.236900 32,000 243 423 -64
2021-09-10 00:16:00 GMT 35.835938 -112.229630 32,000 243 423 0
2021-09-10 00:15:53 GMT 35.842438 -112.214188 32,000 243 424 64
2021-09-10 00:15:49 GMT 35.845688 -112.206459 32,000 243 424 64
2021-09-10 00:15:43 GMT 35.852005 -112.191467 32,000 243 424 -64
2021-09-10 00:15:39 GMT 35.855743 -112.182678 32,000 243 424 -64
2021-09-10 00:15:31 GMT 35.861889 -112.168076 32,000 243 424 0
2021-09-10 00:15:28 GMT 35.864548 -112.161880 32,000 243 424 0
2021-09-10 00:15:22 GMT 35.871231 -112.145973 32,000 243 425 0
2021-09-10 00:15:19 GMT 35.873611 -112.140366 32,000 243 425 0
2021-09-10 00:15:13 GMT 35.879013 -112.127495 32,000 243 424 0
2021-09-10 00:15:11 GMT 35.880112 -112.124924 32,000 243 424 -64
2021-09-10 00:15:07 GMT 35.883362 -112.117195 32,000 243 424 -64
2021-09-10 00:15:02 GMT 35.888809 -112.104378 32,025 243 424 -192
2021-09-10 00:14:58 GMT 35.892986 -112.094208 32,025 245 424 -128
2021-09-10 00:14:50 GMT 35.898247 -112.080185 32,025 249 426 0
2021-09-10 00:14:47 GMT 35.900848 -112.072273 32,025 251 427 64
2021-09-10 00:14:40 GMT 35.904968 -112.057053 32,000 254 429 256
2021-09-10 00:14:36 GMT 35.907089 -112.047401 32,000 257 431 128
2021-09-10 00:14:28 GMT 35.910210 -112.028114 32,000 263 434 -128
2021-09-10 00:14:25 GMT 35.910965 -112.021461 32,000 264 433 -128
2021-09-10 00:14:20 GMT 35.911972 -112.006699 32,000 268 435 -64
2021-09-10 00:14:15 GMT 35.912258 -111.995041 32,025 271 437 0
2021-09-10 00:14:09 GMT 35.911926 -111.981873 32,000 274 437 128
2021-09-10 00:14:05 GMT 35.911102 -111.969452 32,000 276 439 64
2021-09-10 00:14:00 GMT 35.910023 -111.957291 32,000 277 439 0
2021-09-10 00:13:55 GMT 35.908997 -111.945595 32,000 277 438 0
2021-09-10 00:13:52 GMT 35.908394 -111.938934 32,000 277 438 0
2021-09-10 00:13:45 GMT 35.906487 -111.919067 32,000 277 439 0
2021-09-10 00:13:39 GMT 35.904968 -111.903419 32,000 277 439 0
2021-09-10 00:13:31 GMT 35.903366 -111.886871 32,000 277 438 -64
2021-09-10 00:13:24 GMT 35.901398 -111.866798 32,000 277 438 0
2021-09-10 00:13:16 GMT 35.899456 -111.847717 32,000 278 439 64
2021-09-10 00:13:12 GMT 35.898605 -111.840530 32,000 280 440 64
2021-09-10 00:13:05 GMT 35.895905 -111.821823 32,000 283 441 -64
2021-09-10 00:13:01 GMT 35.894287 -111.812714 32,000 283 442 -64
2021-09-10 00:12:58 GMT 35.892105 -111.801743 32,000 286 443 -64
2021-09-10 00:12:55 GMT 35.890823 -111.795898 32,000 286 443 -64
2021-09-10 00:12:52 GMT 35.889446 -111.789803 32,000 286 443 0
2021-09-10 00:12:44 GMT 35.885056 -111.770149 32,000 286 441 0
2021-09-10 00:12:41 GMT 35.883720 -111.764091 32,000 286 441 0
2021-09-10 00:12:34 GMT 35.879486 -111.744751 32,000 285 441 64
2021-09-10 00:12:30 GMT 35.878052 -111.738167 32,000 285 440 64
2021-09-10 00:12:23 GMT 35.874023 -111.719231 32,000 285 441 128
2021-09-10 00:12:20 GMT 35.872967 -111.714127 31,975 285 441 128
2021-09-10 00:12:13 GMT 35.868439 -111.693024 31,975 285 441 -128
2021-09-10 00:12:10 GMT 35.866917 -111.685959 32,000 285 441 -128
2021-09-10 00:12:02 GMT 35.863194 -111.668549 32,000 285 440 0
2021-09-10 00:11:59 GMT 35.861610 -111.661240 32,000 285 440 0
2021-09-10 00:11:50 GMT 35.856583 -111.637749 32,025 285 440 -128
2021-09-10 00:11:41 GMT 35.852345 -111.618111 32,025 285 440 -64
2021-09-10 00:11:38 GMT 35.850861 -111.611076 32,025 285 440 -64
2021-09-10 00:11:29 GMT 35.845596 -111.586151 32,000 285 441 128
2021-09-10 00:11:20 GMT 35.841522 -111.566963 32,000 285 441 128
2021-09-10 00:11:17 GMT 35.839920 -111.559639 32,000 285 442 64
2021-09-10 00:11:10 GMT 35.836006 -111.541443 32,000 285 442 0
2021-09-10 00:11:07 GMT 35.834702 -111.535378 32,000 285 442 -64
2021-09-10 00:11:02 GMT 35.831909 -111.522453 32,000 285 442 -64
2021-09-10 00:10:59 GMT 35.830467 -111.515671 32,000 285 442 -128
2021-09-10 00:10:55 GMT 35.828293 -111.505676 32,000 285 442 -64
2021-09-10 00:10:52 GMT 35.826462 -111.497147 32,025 285 442 -128
2021-09-10 00:10:49 GMT 35.824631 -111.488625 32,025 285 442 -128
2021-09-10 00:10:46 GMT 35.823715 -111.484528 32,000 285 442 -64
2021-09-10 00:10:41 GMT 35.820923 -111.471634 32,025 286 442 128
2021-09-10 00:10:38 GMT 35.819805 -111.466522 32,025 286 442 192
2021-09-10 00:10:36 GMT 35.818176 -111.459282 32,000 286 443 192
2021-09-10 00:10:31 GMT 35.815292 -111.446404 32,000 286 443 64
2021-09-10 00:10:26 GMT 35.812496 -111.434036 32,000 286 443 0
2021-09-10 00:10:19 GMT 35.809193 -111.419426 32,000 286 443 0
2021-09-10 00:10:15 GMT 35.806866 -111.409256 32,000 286 444 0
2021-09-10 00:10:10 GMT 35.803326 -111.393715 32,000 286 444 64
2021-09-10 00:10:07 GMT 35.802025 -111.387871 32,000 286 444 0
2021-09-10 00:10:04 GMT 35.800964 -111.383224 32,000 286 444 0
2021-09-10 00:09:59 GMT 35.798126 -111.370583 32,000 286 444 0
2021-09-10 00:09:55 GMT 35.790527 -111.336990 32,000 286 444 0
2021-09-10 00:09:46 GMT 35.790527 -111.336990 32,000 286 444 64
2021-09-10 00:09:41 GMT 35.788376 -111.327271 32,000 286 444 0
2021-09-10 00:09:38 GMT 35.786427 -111.318733 32,000 286 444 -64
2021-09-10 00:09:34 GMT 35.783981 -111.307755 32,000 286 444 0
2021-09-10 00:09:25 GMT 35.779118 -111.286072 32,000 286 444 64
2021-09-10 00:09:22 GMT 35.778049 -111.281158 32,000 286 444 64
2021-09-10 00:09:17 GMT 35.775238 -111.268730 32,000 286 444 64
2021-09-10 00:09:14 GMT 35.773270 -111.259972 32,000 286 446 -64
2021-09-10 00:09:11 GMT 35.771439 -111.251884 32,000 286 446 -64
2021-09-10 00:09:05 GMT 35.767776 -111.235542 32,000 286 445 -128
2021-09-10 00:09:03 GMT 35.766907 -111.231651 32,000 286 445 -128
2021-09-10 00:08:57 GMT 35.763477 -111.216293 32,000 286 445 0
2021-09-10 00:08:52 GMT 35.761059 -111.205544 32,000 286 445 0
2021-09-10 00:08:43 GMT 35.756264 -111.184036 32,000 286 445 0
2021-09-10 00:08:40 GMT 35.754913 -111.177979 32,000 286 445 0
2021-09-10 00:08:36 GMT 35.752213 -111.165977 32,000 286 445 0
2021-09-10 00:08:31 GMT 35.749371 -111.153297 32,000 286 446 64
2021-09-10 00:08:22 GMT 35.744671 -111.132317 32,000 286 445 0
2021-09-10 00:08:15 GMT 35.740711 -111.114731 32,000 286 445 0
2021-09-10 00:08:10 GMT 35.738708 -111.105705 32,000 286 445 0
2021-09-10 00:08:04 GMT 35.735035 -111.089371 32,000 286 445 -64
2021-09-10 00:08:01 GMT 35.732845 -111.079605 32,000 286 445 -64
2021-09-10 00:07:54 GMT 35.729259 -111.063538 32,000 286 444 -128
2021-09-10 00:07:50 GMT 35.727585 -111.055984 32,025 286 444 0
2021-09-10 00:07:46 GMT 35.724884 -111.043800 32,000 286 444 128
2021-09-10 00:07:40 GMT 35.721771 -111.029892 32,000 286 444 64
2021-09-10 00:07:33 GMT 35.717949 -111.012871 32,000 286 444 0
2021-09-10 00:07:29 GMT 35.716049 -111.004372 32,000 286 444 0
2021-09-10 00:07:26 GMT 35.714172 -110.996078 32,000 286 444 -64
2021-09-10 00:07:19 GMT 35.710266 -110.978745 32,000 286 445 -64
2021-09-10 00:07:16 GMT 35.709198 -110.973892 32,000 286 445 0
2021-09-10 00:07:12 GMT 35.706299 -110.960938 32,000 286 445 -64
2021-09-10 00:07:08 GMT 35.704651 -110.953613 32,025 286 445 -64
2021-09-10 00:07:03 GMT 35.701813 -110.940910 32,025 286 445 -64
2021-09-10 00:06:59 GMT 35.699608 -110.930939 32,025 286 445 0
2021-09-10 00:06:57 GMT 35.697979 -110.923576 32,000 286 446 64
2021-09-10 00:06:53 GMT 35.695724 -110.913567 32,000 286 446 128
2021-09-10 00:06:49 GMT 35.693985 -110.905785 32,000 286 446 128
2021-09-10 00:06:47 GMT 35.693161 -110.901833 32,000 286 447 64
2021-09-10 00:06:44 GMT 35.691227 -110.893250 32,000 286 447 64
2021-09-10 00:06:37 GMT 35.687393 -110.875854 31,975 286 448 64
2021-09-10 00:06:29 GMT 35.682953 -110.855713 31,975 286 448 0
2021-09-10 00:06:25 GMT 35.681351 -110.848389 32,000 285 448 0
2021-09-10 00:06:16 GMT 35.676144 -110.824524 32,000 285 450 64
2021-09-10 00:06:08 GMT 35.671864 -110.804832 32,000 285 448 -64
2021-09-10 00:06:04 GMT 35.670456 -110.798203 32,000 285 448 -64
2021-09-10 00:05:56 GMT 35.665485 -110.775322 32,000 285 448 0
2021-09-10 00:05:54 GMT 35.664974 -110.772865 32,000 285 448 0
2021-09-10 00:05:44 GMT 35.658783 -110.744080 32,000 285 448 0
2021-09-10 00:05:34 GMT 35.653885 -110.721413 32,000 285 449 0
2021-09-10 00:05:25 GMT 35.649445 -110.700645 32,000 285 450 64
2021-09-10 00:05:14 GMT 35.643654 -110.673759 32,025 285 450 64
2021-09-10 00:05:12 GMT 35.641930 -110.665810 32,000 285 450 -64
2021-09-10 00:05:01 GMT 35.636993 -110.642609 32,000 285 450 64
2021-09-10 00:04:52 GMT 35.631550 -110.617363 32,000 285 450 0
2021-09-10 00:04:40 GMT 35.625683 -110.590248 32,000 285 449 64
2021-09-10 00:04:30 GMT 35.620049 -110.564072 32,000 285 449 -64
2021-09-10 00:04:19 GMT 35.614697 -110.538940 32,000 285 448 -64
2021-09-10 00:04:09 GMT 35.609436 -110.514336 32,000 285 448 64
2021-09-10 00:04:00 GMT 35.604267 -110.490204 32,000 285 448 0
2021-09-10 00:03:56 GMT 35.602406 -110.481377 32,000 285 448 0
2021-09-10 00:03:46 GMT 35.596775 -110.454849 32,000 285 448 0
2021-09-10 00:03:37 GMT 35.592537 -110.434685 32,000 285 447 64
2021-09-10 00:03:23 GMT 35.584343 -110.398453 32,000 287 448 0
2021-09-10 00:03:18 GMT 35.581467 -110.386505 32,000 287 448 0
2021-09-10 00:03:07 GMT 35.575104 -110.359726 32,000 287 446 0
2021-09-10 00:02:55 GMT 35.568420 -110.331512 32,000 287 446 128
2021-09-10 00:02:47 GMT 35.563248 -110.309654 32,000 287 445 0
2021-09-10 00:02:33 GMT 35.555969 -110.278648 32,000 287 445 -64
2021-09-10 00:02:24 GMT 35.551117 -110.257812 32,025 286 444 -64
2021-09-10 00:02:13 GMT 35.544357 -110.229103 32,000 286 443 0
2021-09-10 00:02:03 GMT 35.539421 -110.207893 32,025 286 441 0
2021-09-10 00:01:53 GMT 35.533417 -110.181885 32,000 286 441 64
2021-09-10 00:01:46 GMT 35.529465 -110.164780 32,000 286 441 64
2021-09-10 00:01:39 GMT 35.525345 -110.146980 32,000 286 441 64
2021-09-10 00:01:29 GMT 35.520538 -110.125809 32,000 286 442 128
2021-09-10 00:00:25 GMT 35.498596 -109.968292 32,000 279 432 64
2021-09-10 00:00:17 GMT 35.496323 -109.949684 32,000 279 430 0
2021-09-10 00:00:10 GMT 35.494125 -109.931595 32,000 279 430 0
2021-09-10 00:00:00 GMT 35.491287 -109.908981 32,000 279 429 -64
2021-09-09 23:59:48 GMT 35.487579 -109.879532 32,000 279 426 0
2021-09-09 23:59:15 GMT 35.477554 -109.798477 32,000 279 421 -128
2021-09-09 23:59:04 GMT 35.474670 -109.774704 32,025 279 419 -64
2021-09-09 23:58:54 GMT 35.471596 -109.749619 32,000 279 417 64
2021-09-09 23:58:42 GMT 35.468616 -109.724960 32,025 279 414 -192
2021-09-09 23:58:33 GMT 35.465652 -109.700600 32,025 279 412 64
2021-09-09 23:58:22 GMT 35.462704 -109.676926 32,000 279 410 320
2021-09-09 23:58:12 GMT 35.459538 -109.651619 31,925 279 410 448
2021-09-09 23:57:59 GMT 35.456360 -109.626099 31,825 279 410 576
2021-09-09 23:57:51 GMT 35.453659 -109.604073 31,725 279 410 576
2021-09-09 23:57:40 GMT 35.450459 -109.578514 31,650 279 412 512
2021-09-09 23:57:28 GMT 35.447342 -109.554146 31,550 279 411 576
2021-09-09 23:57:18 GMT 35.444317 -109.530182 31,450 279 413 512
2021-09-09 23:57:07 GMT 35.441299 -109.506393 31,375 279 413 448
2021-09-09 23:56:55 GMT 35.437473 -109.476074 31,275 279 413 384
2021-09-09 23:56:46 GMT 35.435143 -109.457550 31,225 279 412 192
2021-09-09 23:56:32 GMT 35.430721 -109.423012 31,200 279 412 256
2021-09-09 23:56:24 GMT 35.428574 -109.406204 31,125 279 412 896
2021-09-09 23:56:16 GMT 35.425926 -109.385727 31,025 279 412 384
2021-09-09 23:56:03 GMT 35.422390 -109.357620 30,975 279 410 128
2021-09-09 23:55:55 GMT 35.419601 -109.336281 30,950 280 409 384
2021-09-09 23:55:43 GMT 35.416351 -109.311623 30,825 280 410 1344
2021-09-09 23:55:34 GMT 35.413284 -109.288216 30,625 279 413 640
2021-09-09 23:55:22 GMT 35.410217 -109.264183 30,575 279 412 128
2021-09-09 23:55:12 GMT 35.406830 -109.237976 30,525 280 410 448
2021-09-09 23:53:28 GMT 35.376251 -109.003143 29,650 280 404 576
2021-09-09 23:52:42 GMT 35.362755 -108.900986 29,125 280 403 512
2021-09-09 23:52:33 GMT 35.359730 -108.878075 29,050 280 401 640
2021-09-09 23:52:23 GMT 35.356842 -108.856773 28,925 280 402 512
2021-09-09 23:52:12 GMT 35.353500 -108.831200 28,775 280 402 512
2021-09-09 23:52:03 GMT 35.350929 -108.811691 28,725 280 400 192
2021-09-09 23:51:52 GMT 35.347504 -108.786049 28,700 280 398 192
2021-09-09 23:51:41 GMT 35.344555 -108.764183 28,650 280 395 704
2021-09-09 23:51:32 GMT 35.341530 -108.741684 28,500 280 396 1216
2021-09-09 23:51:20 GMT 35.338394 -108.717957 28,275 280 399 1152
2021-09-09 23:51:10 GMT 35.335197 -108.693703 28,200 279 397 128
2021-09-09 23:51:02 GMT 35.332684 -108.674248 28,175 280 395 192
2021-09-09 23:50:59 GMT 35.332077 -108.669861 28,150 280 395 256
2021-09-09 23:50:50 GMT 35.329193 -108.648544 28,050 280 393 960
2021-09-09 23:50:42 GMT 35.326813 -108.630981 27,925 280 394 1024
2021-09-09 23:50:37 GMT 35.325577 -108.621773 27,850 280 394 1024
2021-09-09 23:50:29 GMT 35.323048 -108.602600 27,775 280 393 192
2021-09-09 23:50:21 GMT 35.320534 -108.584663 27,750 280 391 128
2021-09-09 23:50:17 GMT 35.319672 -108.578339 27,750 280 390 256
2021-09-09 23:50:08 GMT 35.316788 -108.557053 27,650 280 390 768
2021-09-09 23:49:59 GMT 35.314201 -108.537209 27,575 280 388 320
2021-09-09 23:49:56 GMT 35.313538 -108.532219 27,575 280 387 192
2021-09-09 23:49:46 GMT 35.310150 -108.508072 27,525 280 385 384
2021-09-09 23:49:36 GMT 35.307453 -108.488525 27,375 280 386 1344
2021-09-09 23:49:28 GMT 35.304932 -108.469788 27,225 280 387 768
2021-09-09 23:49:24 GMT 35.304146 -108.464394 27,200 280 387 768
2021-09-09 23:49:17 GMT 35.301727 -108.446747 27,075 280 387 1024
2021-09-09 23:49:12 GMT 35.300446 -108.437004 27,025 280 386 1024
2021-09-09 23:49:06 GMT 35.298752 -108.424072 26,950 280 386 512
2021-09-09 23:49:02 GMT 35.297863 -108.417351 26,925 280 386 384
2021-09-09 23:48:56 GMT 35.295685 -108.401237 26,900 280 384 256
2021-09-09 23:48:53 GMT 35.294697 -108.394211 26,875 280 384 384
2021-09-09 23:48:42 GMT 35.291840 -108.373489 26,750 280 382 1088
2021-09-09 23:48:34 GMT 35.289413 -108.356033 26,575 280 383 1472
2021-09-09 23:48:31 GMT 35.288410 -108.348984 26,500 280 384 1280
2021-09-09 23:48:22 GMT 35.285851 -108.330574 26,350 280 384 1152
2021-09-09 23:48:12 GMT 35.282730 -108.307632 26,175 280 385 896
2021-09-09 23:48:01 GMT 35.279709 -108.285164 26,075 280 383 384
2021-09-09 23:47:50 GMT 35.276459 -108.261566 25,975 280 380 640
2021-09-09 23:47:39 GMT 35.273468 -108.240227 25,850 280 378 1024
2021-09-09 23:47:30 GMT 35.270370 -108.217674 25,650 280 379 1152
2021-09-09 23:47:18 GMT 35.267418 -108.195465 25,475 280 379 960
2021-09-09 23:47:08 GMT 35.264282 -108.172874 25,325 280 377 960
2021-09-09 23:46:57 GMT 35.261353 -108.151878 25,150 280 377 1536
2021-09-09 23:46:48 GMT 35.258293 -108.128899 24,975 280 376 384
2021-09-09 23:46:36 GMT 35.255127 -108.105881 24,850 280 375 1152
2021-09-09 23:46:26 GMT 35.251923 -108.082748 24,625 280 375 1216
2021-09-09 23:46:16 GMT 35.249077 -108.062454 24,475 280 374 896
2021-09-09 23:46:05 GMT 35.245956 -108.040367 24,275 280 374 1472
2021-09-09 23:45:54 GMT 35.242722 -108.018089 24,025 280 376 1536
2021-09-09 23:45:44 GMT 35.239563 -107.995377 23,775 280 378 1280
2021-09-09 23:45:33 GMT 35.236359 -107.972260 23,600 280 377 960
2021-09-09 23:45:21 GMT 35.233292 -107.950462 23,450 280 375 832
2021-09-09 23:45:11 GMT 35.230042 -107.927513 23,250 280 374 1472
2021-09-09 23:45:00 GMT 35.226776 -107.904739 23,025 280 375 1216
2021-09-09 23:44:50 GMT 35.223724 -107.883331 22,825 280 374 1152
2021-09-09 23:44:39 GMT 35.220520 -107.861244 22,625 281 373 1280
2021-09-09 23:44:29 GMT 35.217373 -107.839455 22,450 281 373 1152
2021-09-09 23:44:18 GMT 35.214111 -107.816856 22,250 281 372 1088
2021-09-09 23:44:10 GMT 35.211731 -107.800713 22,125 281 370 768
2021-09-09 23:44:06 GMT 35.210857 -107.794762 22,100 281 371 832
2021-09-09 23:43:57 GMT 35.207611 -107.773186 21,900 281 368 1472
2021-09-09 23:43:49 GMT 35.205276 -107.757607 21,725 281 370 1280
2021-09-09 23:43:45 GMT 35.204315 -107.751442 21,675 281 370 1216
2021-09-09 23:43:38 GMT 35.201920 -107.735657 21,500 281 369 1408
2021-09-09 23:43:35 GMT 35.200974 -107.729691 21,450 281 369 1344
2021-09-09 23:43:28 GMT 35.198380 -107.713570 21,300 282 368 1216
2021-09-09 23:43:25 GMT 35.197540 -107.708244 21,250 281 368 1216
2021-09-09 23:43:17 GMT 35.195160 -107.692474 21,100 279 367 960
2021-09-09 23:43:13 GMT 35.194424 -107.685303 21,050 276 366 1024
2021-09-09 23:43:07 GMT 35.193584 -107.671280 20,925 274 364 1024
2021-09-09 23:43:04 GMT 35.193237 -107.664108 20,875 274 364 896
2021-09-09 23:42:53 GMT 35.192184 -107.642029 20,725 274 360 1088
2021-09-09 23:42:42 GMT 35.191223 -107.620560 20,525 274 359 1280
2021-09-09 23:42:31 GMT 35.190216 -107.598694 20,275 274 358 1408
2021-09-09 23:42:24 GMT 35.189629 -107.584305 20,125 273 358 1280
2021-09-09 23:42:21 GMT 35.189350 -107.577843 20,075 273 358 1024
2021-09-09 23:42:09 GMT 35.188419 -107.555756 19,925 273 353 832
2021-09-09 23:41:59 GMT 35.187534 -107.534698 19,725 273 351 1408
2021-09-09 23:41:49 GMT 35.186649 -107.513695 19,500 274 350 1344
2021-09-09 23:41:37 GMT 35.185318 -107.492645 19,275 277 350 1408
2021-09-09 23:41:31 GMT 35.183949 -107.479874 19,125 278 349 1280
2021-09-09 23:41:27 GMT 35.183018 -107.471695 19,050 278 348 1408
2021-09-09 23:41:17 GMT 35.180649 -107.450882 18,800 279 347 1536
2021-09-09 23:41:09 GMT 35.178455 -107.434845 18,600 285 347 1792
2021-09-09 23:41:06 GMT 35.177666 -107.430206 18,550 284 347 1664
2021-09-09 23:40:55 GMT 35.173462 -107.409912 18,250 285 348 1408
2021-09-09 23:40:47 GMT 35.169842 -107.393021 18,125 285 345 896
2021-09-09 23:40:44 GMT 35.168472 -107.386818 18,075 285 343 960
2021-09-09 23:40:37 GMT 35.166164 -107.376190 17,975 285 341 1344
2021-09-09 23:40:33 GMT 35.164211 -107.367271 17,875 285 340 1216
2021-09-09 23:40:25 GMT 35.160858 -107.352104 17,825 286 338 960
2021-09-09 23:40:22 GMT 35.159649 -107.346558 17,700 285 336 1152
2021-09-09 23:40:17 GMT 35.158344 -107.340714 17,625 285 335 1344
2021-09-09 23:40:11 GMT 35.155609 -107.328133 17,475 285 334 1344
2021-09-09 23:40:06 GMT 35.153641 -107.319046 17,375 285 331 1472
2021-09-09 23:40:01 GMT 35.151398 -107.308510 17,250 285 331 1472
2021-09-09 23:39:55 GMT 35.149734 -107.300774 17,150 285 330 832
2021-09-09 23:39:50 GMT 35.147171 -107.289276 17,100 286 326 576
2021-09-09 23:39:47 GMT 35.145962 -107.283958 17,075 286 324 768
2021-09-09 23:39:39 GMT 35.143066 -107.270729 16,925 285 320 1472
2021-09-09 23:39:35 GMT 35.141727 -107.264610 16,850 285 320 1600
2021-09-09 23:39:26 GMT 35.137894 -107.246964 16,625 285 318 1280
2021-09-09 23:39:18 GMT 35.134930 -107.233253 16,475 285 315 1088
2021-09-09 23:39:14 GMT 35.133949 -107.228790 16,425 285 314 1088
2021-09-09 23:39:05 GMT 35.130066 -107.210869 16,175 285 312 1984
2021-09-09 23:38:57 GMT 35.126953 -107.196571 15,900 286 312 1920
2021-09-09 23:38:53 GMT 35.126129 -107.192818 15,850 285 313 1920
2021-09-09 23:38:44 GMT 35.122219 -107.174889 15,525 285 312 1728
2021-09-09 23:38:35 GMT 35.119217 -107.161095 15,300 285 312 1984
2021-09-09 23:38:32 GMT 35.118256 -107.156662 15,225 286 312 2112
2021-09-09 23:38:23 GMT 35.114399 -107.139130 14,875 285 313 1984
2021-09-09 23:38:12 GMT 35.110519 -107.121521 14,625 286 312 1216
2021-09-09 23:38:01 GMT 35.106487 -107.103081 14,375 286 307 1856
2021-09-09 23:37:50 GMT 35.102623 -107.085632 14,025 285 309 2240
2021-09-09 23:37:40 GMT 35.098709 -107.067719 13,700 285 311 1920
2021-09-09 23:37:30 GMT 35.095036 -107.050438 13,400 285 309 1792
2021-09-09 23:37:19 GMT 35.091171 -107.032990 13,075 286 308 2304
2021-09-09 23:37:09 GMT 35.087219 -107.014961 12,725 285 309 1728
2021-09-09 23:36:57 GMT 35.083282 -106.996803 12,450 285 307 2048
2021-09-09 23:36:48 GMT 35.079624 -106.979599 12,100 285 306 1856
2021-09-09 23:36:37 GMT 35.075809 -106.962318 11,825 286 302 1984
2021-09-09 23:36:27 GMT 35.071850 -106.944527 11,475 285 303 2304
2021-09-09 23:36:15 GMT 35.067993 -106.926796 11,100 285 304 1984
2021-09-09 23:36:06 GMT 35.064240 -106.909363 10,750 286 304 2432
2021-09-09 23:35:54 GMT 35.060394 -106.891983 10,425 286 304 1600
2021-09-09 23:35:45 GMT 35.056675 -106.875000 10,200 286 298 1472
2021-09-09 23:35:34 GMT 35.052670 -106.857552 9,875 286 297 2240
2021-09-09 23:35:23 GMT 35.048859 -106.840302 9,575 286 295 1856
2021-09-09 23:35:13 GMT 35.044804 -106.823273 9,200 289 294 2752
2021-09-09 23:35:02 GMT 35.039356 -106.806503 8,700 298 301 2624
2021-09-09 23:34:50 GMT 35.031490 -106.790771 8,475 305 300 320
2021-09-09 23:34:42 GMT 35.024506 -106.778358 8,400 306 291 1216
2021-09-09 23:34:39 GMT 35.022720 -106.775284 8,350 306 290 1344
2021-09-09 23:34:30 GMT 35.014965 -106.762276 8,175 308 283 896
2021-09-09 23:34:19 GMT 35.006607 -106.749161 8,025 308 275 1024
2021-09-09 23:34:09 GMT 34.998203 -106.736015 7,875 309 266 896
2021-09-09 23:33:58 GMT 34.990219 -106.723602 7,725 308 256 1088
2021-09-09 23:33:46 GMT 34.983444 -106.711105 7,475 295 243 1600
2021-09-09 23:33:37 GMT 34.980240 -106.697929 7,275 273 234 1152
2021-09-09 23:33:28 GMT 34.980656 -106.686630 7,100 257 226 1344
2021-09-09 23:33:25 GMT 34.981213 -106.683945 7,050 253 224 1344
2021-09-09 23:33:15 GMT 34.985870 -106.672501 6,875 232 210 1344
2021-09-09 23:33:05 GMT 34.992851 -106.663567 6,575 222 201 2240
2021-09-09 23:32:54 GMT 35.000381 -106.655830 6,325 220 193 832
2021-09-09 23:32:46 GMT 35.005886 -106.650124 6,200 221 180 1088
2021-09-09 23:32:43 GMT 35.007660 -106.648209 6,150 221 175 1664
2021-09-09 23:32:33 GMT 35.013802 -106.641655 5,850 224 173 1664
2021-09-09 23:32:25 GMT 35.018417 -106.635933 5,650 227 167 1728
2021-09-09 23:32:20 GMT 35.020641 -106.632957 5,550 227 164 1984
2021-09-09 23:32:14 GMT 35.024227 -106.628380 5,325 227 164 1984
2021-09-09 23:32:11 GMT 35.025238 -106.627136 5,275 226 164 1664
2021-09-09 23:31:56 GMT 35.033661 -106.616875 5,125 225 150 64
2021-09-09 23:31:47 GMT 35.036819 -106.613007 5,125 226 116 -64
2021-09-09 23:31:40 GMT 35.039406 -106.609924 0 225 74
2021-09-09 23:31:13 GMT 35.041798 -106.607025 0 202 13
2021-09-09 23:29:59 GMT 35.042427 -106.609016 0 90 11
2021-09-09 23:29:43 GMT 35.042431 -106.610023 0 98 14
2021-09-09 23:29:34 GMT 35.042801 -106.610626 0 168 15
2021-09-09 23:29:24 GMT 35.043465 -106.610641 0 182 17
2021-09-09 23:29:14 GMT 35.044327 -106.610580 0 182 17
2021-09-09 23:29:04 GMT 35.045071 -106.610512 0 188 16
2021-09-09 23:28:52 GMT 35.045769 -106.610863 0 104 16

Making use of Plane Finder data

You are free to use the raw flight data, aircraft information and images provided in this report for your own purposes provided the data is correctly attributed to Plane Finder. We ask that you please credit Plane Finder and link to planefinder.net in close proximity to the content.

Optionally one of the following logos (no smaller then 150x24px) can be used and must link to planefinder.net

Embedding the Plane Finder map

You are welcome to embed the Plane Finder playback map on your website to offer visitors a more interactive experience. We suggest using the following HTML code:

<iframe src="//planefinder.net/data/report/UA5836-N417SW-7700-squawk-2021-09-10/map" width="800" height="600" seamless="seamless"></iframe>

Where our data comes from

Plane Finder has a global network of data feeds and antenna radars that receive data broadcast directly from aircraft. The primary technologies used are ADS-B and MLAT. We also show feeds from the FAA and a FLARM glider feed.

Click here to find out more about the Plane Finder network.

How we collect our data